<?xml version="1.0" encoding="UTF-8"?>
<gpx xmlns="http://www.topografix.com/GPX/1/1" version="1.1" xmlns:xsi="http://www.w3.org/2001/XMLSchema-instance" xsi:schemaLocation="http://www.topografix.com/GPX/1/1 http://www.topografix.com/GPX/1/1/gpx.xsd" creator="MotionXGPSFull 24.4 Build 5112 R64">
<trk>
<name><![CDATA[Big Wave Bay 2019]]></name>
<desc><![CDATA[Feb 7, 2019 11:13 am]]></desc>
<trkseg>
<trkpt lat="22.2668179" lon="114.2510733">
<ele>1.577</ele>
<time>2019-02-07T03:13:13.000Z</time>
</trkpt>
<trkpt lat="22.2667278" lon="114.2510884">
<ele>1.576</ele>
<time>2019-02-07T03:13:25.086Z</time>
</trkpt>
<trkpt lat="22.2666563" lon="114.2511565">
<ele>1.576</ele>
<time>2019-02-07T03:13:35.720Z</time>
</trkpt>
<trkpt lat="22.2666159" lon="114.2512475">
<ele>1.638</ele>
<time>2019-02-07T03:13:45.561Z</time>
</trkpt>
<trkpt lat="22.2665477" lon="114.2513231">
<ele>1.798</ele>
<time>2019-02-07T03:13:54.737Z</time>
</trkpt>
<trkpt lat="22.2664757" lon="114.2513905">
<ele>1.985</ele>
<time>2019-02-07T03:14:03.787Z</time>
</trkpt>
<trkpt lat="22.2664055" lon="114.2514657">
<ele>2.134</ele>
<time>2019-02-07T03:14:13.853Z</time>
</trkpt>
<trkpt lat="22.2663447" lon="114.2515416">
<ele>2.250</ele>
<time>2019-02-07T03:14:23.565Z</time>
</trkpt>
<trkpt lat="22.2662661" lon="114.2516017">
<ele>2.382</ele>
<time>2019-02-07T03:14:33.848Z</time>
</trkpt>
<trkpt lat="22.2661939" lon="114.2516754">
<ele>2.552</ele>
<time>2019-02-07T03:14:44.294Z</time>
</trkpt>
<trkpt lat="22.2661220" lon="114.2517458">
<ele>2.689</ele>
<time>2019-02-07T03:14:54.624Z</time>
</trkpt>
<trkpt lat="22.2660562" lon="114.2518220">
<ele>2.752</ele>
<time>2019-02-07T03:15:04.428Z</time>
</trkpt>
<trkpt lat="22.2659766" lon="114.2518869">
<ele>2.768</ele>
<time>2019-02-07T03:15:14.526Z</time>
</trkpt>
<trkpt lat="22.2659291" lon="114.2519768">
<ele>2.733</ele>
<time>2019-02-07T03:15:25.457Z</time>
</trkpt>
<trkpt lat="22.2658378" lon="114.2519867">
<ele>2.545</ele>
<time>2019-02-07T03:15:37.657Z</time>
</trkpt>
<trkpt lat="22.2657471" lon="114.2519779">
<ele>2.170</ele>
<time>2019-02-07T03:15:47.269Z</time>
</trkpt>
<trkpt lat="22.2656535" lon="114.2519993">
<ele>1.781</ele>
<time>2019-02-07T03:15:55.460Z</time>
</trkpt>
<trkpt lat="22.2655642" lon="114.2520440">
<ele>1.480</ele>
<time>2019-02-07T03:16:03.937Z</time>
</trkpt>
<trkpt lat="22.2654718" lon="114.2520805">
<ele>1.187</ele>
<time>2019-02-07T03:16:12.999Z</time>
</trkpt>
<trkpt lat="22.2654718" lon="114.2520805">
<ele>0.906</ele>
<time>2019-02-07T03:16:24.999Z</time>
</trkpt>
<trkpt lat="22.2654718" lon="114.2520805">
<ele>0.756</ele>
<time>2019-02-07T03:16:25.099Z</time>
</trkpt>
<trkpt lat="22.2653538" lon="114.2520619">
<ele>0.807</ele>
<time>2019-02-07T03:16:43.406Z</time>
</trkpt>
<trkpt lat="22.2653068" lon="114.2521505">
<ele>1.051</ele>
<time>2019-02-07T03:16:52.638Z</time>
</trkpt>
<trkpt lat="22.2652719" lon="114.2522418">
<ele>1.384</ele>
<time>2019-02-07T03:17:00.672Z</time>
</trkpt>
<trkpt lat="22.2652972" lon="114.2523403">
<ele>1.666</ele>
<time>2019-02-07T03:17:08.050Z</time>
</trkpt>
<trkpt lat="22.2653388" lon="114.2524273">
<ele>1.867</ele>
<time>2019-02-07T03:17:14.435Z</time>
</trkpt>
<trkpt lat="22.2653891" lon="114.2525099">
<ele>2.073</ele>
<time>2019-02-07T03:17:20.802Z</time>
</trkpt>
<trkpt lat="22.2654197" lon="114.2526108">
<ele>2.445</ele>
<time>2019-02-07T03:17:27.999Z</time>
</trkpt>
<trkpt lat="22.2654197" lon="114.2526108">
<ele>2.987</ele>
<time>2019-02-07T03:17:38.999Z</time>
</trkpt>
<trkpt lat="22.2654197" lon="114.2526108">
<ele>3.357</ele>
<time>2019-02-07T03:17:39.099Z</time>
</trkpt>
<trkpt lat="22.2654505" lon="114.2527225">
<ele>3.339</ele>
<time>2019-02-07T03:17:50.999Z</time>
</trkpt>
<trkpt lat="22.2654505" lon="114.2527225">
<ele>3.194</ele>
<time>2019-02-07T03:17:52.999Z</time>
</trkpt>
<trkpt lat="22.2654505" lon="114.2527225">
<ele>3.179</ele>
<time>2019-02-07T03:18:13.999Z</time>
</trkpt>
<trkpt lat="22.2654505" lon="114.2527225">
<ele>3.238</ele>
<time>2019-02-07T03:18:14.099Z</time>
</trkpt>
<trkpt lat="22.2654641" lon="114.2528855">
<ele>3.249</ele>
<time>2019-02-07T03:18:40.608Z</time>
</trkpt>
<trkpt lat="22.2653863" lon="114.2529463">
<ele>3.337</ele>
<time>2019-02-07T03:18:49.999Z</time>
</trkpt>
<trkpt lat="22.2653863" lon="114.2529463">
<ele>3.616</ele>
<time>2019-02-07T03:19:02.999Z</time>
</trkpt>
<trkpt lat="22.2653863" lon="114.2529463">
<ele>3.859</ele>
<time>2019-02-07T03:19:59.999Z</time>
</trkpt>
<trkpt lat="22.2653863" lon="114.2529463">
<ele>3.854</ele>
<time>2019-02-07T03:20:53.620Z</time>
</trkpt>
<trkpt lat="22.2652547" lon="114.2531117">
<ele>3.757</ele>
<time>2019-02-07T03:22:34.999Z</time>
</trkpt>
<trkpt lat="22.2652547" lon="114.2531117">
<ele>3.748</ele>
<time>2019-02-07T03:22:38.999Z</time>
</trkpt>
<trkpt lat="22.2652547" lon="114.2531117">
<ele>3.788</ele>
<time>2019-02-07T03:24:30.088Z</time>
</trkpt>
<trkpt lat="22.2651269" lon="114.2530074">
<ele>3.795</ele>
<time>2019-02-07T03:25:25.999Z</time>
</trkpt>
<trkpt lat="22.2651269" lon="114.2530074">
<ele>3.780</ele>
<time>2019-02-07T03:25:40.999Z</time>
</trkpt>
<trkpt lat="22.2651269" lon="114.2530074">
<ele>3.776</ele>
<time>2019-02-07T03:25:41.099Z</time>
</trkpt>
<trkpt lat="22.2651435" lon="114.2529034">
<ele>3.783</ele>
<time>2019-02-07T03:26:01.599Z</time>
</trkpt>
<trkpt lat="22.2652143" lon="114.2528398">
<ele>4.786</ele>
<time>2019-02-07T03:26:14.999Z</time>
</trkpt>
<trkpt lat="22.2652143" lon="114.2528398">
<ele>7.386</ele>
<time>2019-02-07T03:26:16.999Z</time>
</trkpt>
<trkpt lat="22.2652143" lon="114.2528398">
<ele>9.552</ele>
<time>2019-02-07T03:26:35.868Z</time>
</trkpt>
<trkpt lat="22.2651242" lon="114.2528451">
<ele>8.362</ele>
<time>2019-02-07T03:26:57.470Z</time>
</trkpt>
<trkpt lat="22.2650319" lon="114.2528215">
<ele>8.509</ele>
<time>2019-02-07T03:27:06.999Z</time>
</trkpt>
<trkpt lat="22.2650319" lon="114.2528215">
<ele>10.797</ele>
<time>2019-02-07T03:27:12.999Z</time>
</trkpt>
<trkpt lat="22.2650319" lon="114.2528215">
<ele>12.947</ele>
<time>2019-02-07T03:27:15.738Z</time>
</trkpt>
<trkpt lat="22.2649252" lon="114.2527761">
<ele>12.934</ele>
<time>2019-02-07T03:27:36.263Z</time>
</trkpt>
<trkpt lat="22.2648776" lon="114.2528591">
<ele>12.895</ele>
<time>2019-02-07T03:27:50.536Z</time>
</trkpt>
<trkpt lat="22.2648188" lon="114.2529365">
<ele>14.927</ele>
<time>2019-02-07T03:28:06.289Z</time>
</trkpt>
<trkpt lat="22.2647334" lon="114.2529674">
<ele>17.605</ele>
<time>2019-02-07T03:28:21.217Z</time>
</trkpt>
<trkpt lat="22.2646506" lon="114.2530119">
<ele>19.233</ele>
<time>2019-02-07T03:28:36.999Z</time>
</trkpt>
<trkpt lat="22.2646506" lon="114.2530119">
<ele>19.984</ele>
<time>2019-02-07T03:28:46.999Z</time>
</trkpt>
<trkpt lat="22.2646506" lon="114.2530119">
<ele>20.215</ele>
<time>2019-02-07T03:28:47.099Z</time>
</trkpt>
<trkpt lat="22.2646506" lon="114.2530119">
<ele>20.035</ele>
<time>2019-02-07T03:29:45.999Z</time>
</trkpt>
<trkpt lat="22.2646506" lon="114.2530119">
<ele>19.968</ele>
<time>2019-02-07T03:29:46.099Z</time>
</trkpt>
<trkpt lat="22.2645333" lon="114.2530175">
<ele>19.982</ele>
<time>2019-02-07T03:29:57.999Z</time>
</trkpt>
<trkpt lat="22.2645333" lon="114.2530175">
<ele>20.032</ele>
<time>2019-02-07T03:30:11.999Z</time>
</trkpt>
<trkpt lat="22.2645333" lon="114.2530175">
<ele>20.052</ele>
<time>2019-02-07T03:30:12.099Z</time>
</trkpt>
<trkpt lat="22.2643785" lon="114.2530838">
<ele>20.035</ele>
<time>2019-02-07T03:30:44.788Z</time>
</trkpt>
<trkpt lat="22.2643116" lon="114.2531571">
<ele>21.444</ele>
<time>2019-02-07T03:30:54.636Z</time>
</trkpt>
<trkpt lat="22.2642455" lon="114.2532374">
<ele>25.265</ele>
<time>2019-02-07T03:31:03.668Z</time>
</trkpt>
<trkpt lat="22.2642490" lon="114.2533401">
<ele>29.518</ele>
<time>2019-02-07T03:31:12.989Z</time>
</trkpt>
<trkpt lat="22.2641816" lon="114.2534117">
<ele>32.353</ele>
<time>2019-02-07T03:31:22.948Z</time>
</trkpt>
<trkpt lat="22.2640973" lon="114.2534542">
<ele>34.255</ele>
<time>2019-02-07T03:31:32.999Z</time>
</trkpt>
<trkpt lat="22.2640973" lon="114.2534542">
<ele>35.389</ele>
<time>2019-02-07T03:31:56.999Z</time>
</trkpt>
<trkpt lat="22.2640973" lon="114.2534542">
<ele>35.628</ele>
<time>2019-02-07T03:32:13.050Z</time>
</trkpt>
<trkpt lat="22.2640387" lon="114.2533287">
<ele>35.459</ele>
<time>2019-02-07T03:32:34.166Z</time>
</trkpt>
<trkpt lat="22.2639508" lon="114.2533700">
<ele>35.774</ele>
<time>2019-02-07T03:32:43.999Z</time>
</trkpt>
<trkpt lat="22.2639508" lon="114.2533700">
<ele>36.841</ele>
<time>2019-02-07T03:32:51.999Z</time>
</trkpt>
<trkpt lat="22.2639508" lon="114.2533700">
<ele>37.754</ele>
<time>2019-02-07T03:32:52.099Z</time>
</trkpt>
<trkpt lat="22.2637852" lon="114.2534150">
<ele>37.726</ele>
<time>2019-02-07T03:33:14.086Z</time>
</trkpt>
<trkpt lat="22.2636911" lon="114.2534138">
<ele>37.897</ele>
<time>2019-02-07T03:33:21.999Z</time>
</trkpt>
<trkpt lat="22.2636911" lon="114.2534138">
<ele>39.279</ele>
<time>2019-02-07T03:33:31.999Z</time>
</trkpt>
<trkpt lat="22.2636911" lon="114.2534138">
<ele>40.608</ele>
<time>2019-02-07T03:33:43.475Z</time>
</trkpt>
<trkpt lat="22.2635984" lon="114.2534536">
<ele>40.590</ele>
<time>2019-02-07T03:33:59.696Z</time>
</trkpt>
<trkpt lat="22.2635219" lon="114.2535073">
<ele>40.588</ele>
<time>2019-02-07T03:34:11.385Z</time>
</trkpt>
<trkpt lat="22.2634409" lon="114.2535597">
<ele>42.062</ele>
<time>2019-02-07T03:34:24.469Z</time>
</trkpt>
<trkpt lat="22.2633740" lon="114.2536323">
<ele>44.276</ele>
<time>2019-02-07T03:34:35.961Z</time>
</trkpt>
<trkpt lat="22.2633075" lon="114.2537001">
<ele>46.105</ele>
<time>2019-02-07T03:34:46.729Z</time>
</trkpt>
<trkpt lat="22.2632213" lon="114.2537443">
<ele>47.658</ele>
<time>2019-02-07T03:34:58.336Z</time>
</trkpt>
<trkpt lat="22.2631420" lon="114.2537914">
<ele>49.130</ele>
<time>2019-02-07T03:35:09.868Z</time>
</trkpt>
<trkpt lat="22.2631025" lon="114.2538839">
<ele>50.250</ele>
<time>2019-02-07T03:35:21.000Z</time>
</trkpt>
<trkpt lat="22.2631025" lon="114.2538839">
<ele>50.760</ele>
<time>2019-02-07T03:35:28.999Z</time>
</trkpt>
<trkpt lat="22.2631025" lon="114.2538839">
<ele>50.821</ele>
<time>2019-02-07T03:35:35.946Z</time>
</trkpt>
<trkpt lat="22.2630087" lon="114.2539299">
<ele>50.697</ele>
<time>2019-02-07T03:35:58.531Z</time>
</trkpt>
<trkpt lat="22.2629205" lon="114.2539671">
<ele>51.244</ele>
<time>2019-02-07T03:36:09.350Z</time>
</trkpt>
<trkpt lat="22.2628281" lon="114.2539961">
<ele>52.859</ele>
<time>2019-02-07T03:36:20.479Z</time>
</trkpt>
<trkpt lat="22.2627369" lon="114.2539989">
<ele>54.893</ele>
<time>2019-02-07T03:36:31.796Z</time>
</trkpt>
<trkpt lat="22.2626412" lon="114.2540067">
<ele>56.400</ele>
<time>2019-02-07T03:36:44.242Z</time>
</trkpt>
<trkpt lat="22.2625523" lon="114.2540262">
<ele>57.396</ele>
<time>2019-02-07T03:36:55.745Z</time>
</trkpt>
<trkpt lat="22.2624540" lon="114.2540329">
<ele>58.560</ele>
<time>2019-02-07T03:37:07.558Z</time>
</trkpt>
<trkpt lat="22.2623536" lon="114.2540318">
<ele>60.207</ele>
<time>2019-02-07T03:37:18.827Z</time>
</trkpt>
<trkpt lat="22.2622583" lon="114.2540251">
<ele>61.738</ele>
<time>2019-02-07T03:37:28.493Z</time>
</trkpt>
<trkpt lat="22.2621816" lon="114.2539686">
<ele>62.873</ele>
<time>2019-02-07T03:37:37.578Z</time>
</trkpt>
<trkpt lat="22.2620927" lon="114.2539933">
<ele>64.033</ele>
<time>2019-02-07T03:37:46.999Z</time>
</trkpt>
<trkpt lat="22.2620927" lon="114.2539933">
<ele>65.184</ele>
<time>2019-02-07T03:38:03.999Z</time>
</trkpt>
<trkpt lat="22.2620927" lon="114.2539933">
<ele>65.773</ele>
<time>2019-02-07T03:42:42.980Z</time>
</trkpt>
<trkpt lat="22.2619427" lon="114.2540256">
<ele>65.693</ele>
<time>2019-02-07T03:43:00.998Z</time>
</trkpt>
<trkpt lat="22.2619427" lon="114.2540256">
<ele>65.429</ele>
<time>2019-02-07T03:43:07.998Z</time>
</trkpt>
<trkpt lat="22.2619427" lon="114.2540256">
<ele>65.384</ele>
<time>2019-02-07T03:43:08.098Z</time>
</trkpt>
<trkpt lat="22.2618263" lon="114.2540302">
<ele>65.495</ele>
<time>2019-02-07T03:43:17.000Z</time>
</trkpt>
<trkpt lat="22.2618263" lon="114.2540302">
<ele>65.565</ele>
<time>2019-02-07T03:43:22.000Z</time>
</trkpt>
<trkpt lat="22.2618263" lon="114.2540302">
<ele>65.544</ele>
<time>2019-02-07T03:43:22.100Z</time>
</trkpt>
<trkpt lat="22.2617324" lon="114.2540321">
<ele>65.500</ele>
<time>2019-02-07T03:43:36.852Z</time>
</trkpt>
<trkpt lat="22.2616426" lon="114.2540116">
<ele>66.091</ele>
<time>2019-02-07T03:43:47.027Z</time>
</trkpt>
<trkpt lat="22.2615616" lon="114.2539630">
<ele>67.764</ele>
<time>2019-02-07T03:43:57.374Z</time>
</trkpt>
<trkpt lat="22.2614796" lon="114.2539147">
<ele>69.717</ele>
<time>2019-02-07T03:44:07.727Z</time>
</trkpt>
<trkpt lat="22.2613880" lon="114.2538991">
<ele>71.000</ele>
<time>2019-02-07T03:44:18.735Z</time>
</trkpt>
<trkpt lat="22.2612976" lon="114.2539361">
<ele>71.687</ele>
<time>2019-02-07T03:44:29.228Z</time>
</trkpt>
<trkpt lat="22.2612137" lon="114.2539752">
<ele>72.174</ele>
<time>2019-02-07T03:44:38.999Z</time>
</trkpt>
<trkpt lat="22.2612137" lon="114.2539752">
<ele>72.589</ele>
<time>2019-02-07T03:44:42.999Z</time>
</trkpt>
<trkpt lat="22.2612137" lon="114.2539752">
<ele>72.781</ele>
<time>2019-02-07T03:44:44.259Z</time>
</trkpt>
<trkpt lat="22.2611238" lon="114.2540393">
<ele>72.730</ele>
<time>2019-02-07T03:45:04.601Z</time>
</trkpt>
<trkpt lat="22.2610303" lon="114.2540561">
<ele>72.945</ele>
<time>2019-02-07T03:45:17.117Z</time>
</trkpt>
<trkpt lat="22.2609469" lon="114.2540976">
<ele>73.956</ele>
<time>2019-02-07T03:45:29.999Z</time>
</trkpt>
<trkpt lat="22.2609469" lon="114.2540976">
<ele>75.351</ele>
<time>2019-02-07T03:45:37.999Z</time>
</trkpt>
<trkpt lat="22.2609469" lon="114.2540976">
<ele>76.144</ele>
<time>2019-02-07T03:45:38.099Z</time>
</trkpt>
<trkpt lat="22.2608241" lon="114.2541351">
<ele>76.056</ele>
<time>2019-02-07T03:46:15.022Z</time>
</trkpt>
<trkpt lat="22.2607313" lon="114.2541123">
<ele>76.038</ele>
<time>2019-02-07T03:46:23.802Z</time>
</trkpt>
<trkpt lat="22.2606352" lon="114.2541183">
<ele>77.024</ele>
<time>2019-02-07T03:46:34.225Z</time>
</trkpt>
<trkpt lat="22.2605427" lon="114.2541307">
<ele>78.642</ele>
<time>2019-02-07T03:46:44.691Z</time>
</trkpt>
<trkpt lat="22.2604504" lon="114.2541333">
<ele>80.131</ele>
<time>2019-02-07T03:46:54.829Z</time>
</trkpt>
<trkpt lat="22.2603557" lon="114.2541349">
<ele>81.328</ele>
<time>2019-02-07T03:47:04.759Z</time>
</trkpt>
<trkpt lat="22.2602664" lon="114.2541174">
<ele>82.236</ele>
<time>2019-02-07T03:47:13.999Z</time>
</trkpt>
<trkpt lat="22.2602664" lon="114.2541174">
<ele>82.784</ele>
<time>2019-02-07T03:47:18.999Z</time>
</trkpt>
<trkpt lat="22.2602664" lon="114.2541174">
<ele>82.961</ele>
<time>2019-02-07T03:47:26.373Z</time>
</trkpt>
<trkpt lat="22.2602664" lon="114.2541174">
<ele>82.764</ele>
<time>2019-02-07T03:48:16.998Z</time>
</trkpt>
<trkpt lat="22.2602664" lon="114.2541174">
<ele>82.687</ele>
<time>2019-02-07T03:50:57.420Z</time>
</trkpt>
<trkpt lat="22.2601875" lon="114.2540637">
<ele>82.662</ele>
<time>2019-02-07T03:51:11.999Z</time>
</trkpt>
<trkpt lat="22.2601875" lon="114.2540637">
<ele>82.665</ele>
<time>2019-02-07T03:51:22.999Z</time>
</trkpt>
<trkpt lat="22.2601875" lon="114.2540637">
<ele>82.654</ele>
<time>2019-02-07T03:51:23.099Z</time>
</trkpt>
<trkpt lat="22.2600715" lon="114.2540094">
<ele>82.620</ele>
<time>2019-02-07T03:51:41.855Z</time>
</trkpt>
<trkpt lat="22.2599946" lon="114.2539567">
<ele>83.977</ele>
<time>2019-02-07T03:51:50.237Z</time>
</trkpt>
<trkpt lat="22.2599029" lon="114.2539242">
<ele>87.746</ele>
<time>2019-02-07T03:51:58.661Z</time>
</trkpt>
<trkpt lat="22.2598080" lon="114.2538954">
<ele>92.064</ele>
<time>2019-02-07T03:52:06.999Z</time>
</trkpt>
<trkpt lat="22.2598080" lon="114.2538954">
<ele>94.737</ele>
<time>2019-02-07T03:52:09.999Z</time>
</trkpt>
<trkpt lat="22.2598080" lon="114.2538954">
<ele>95.632</ele>
<time>2019-02-07T03:52:52.187Z</time>
</trkpt>
<trkpt lat="22.2597062" lon="114.2538448">
<ele>94.937</ele>
<time>2019-02-07T03:53:11.897Z</time>
</trkpt>
<trkpt lat="22.2596191" lon="114.2538142">
<ele>94.992</ele>
<time>2019-02-07T03:53:22.919Z</time>
</trkpt>
<trkpt lat="22.2595333" lon="114.2537764">
<ele>95.883</ele>
<time>2019-02-07T03:53:34.040Z</time>
</trkpt>
<trkpt lat="22.2594458" lon="114.2537373">
<ele>97.124</ele>
<time>2019-02-07T03:53:42.831Z</time>
</trkpt>
<trkpt lat="22.2593718" lon="114.2536794">
<ele>98.152</ele>
<time>2019-02-07T03:53:49.768Z</time>
</trkpt>
<trkpt lat="22.2593080" lon="114.2536036">
<ele>98.791</ele>
<time>2019-02-07T03:53:56.762Z</time>
</trkpt>
<trkpt lat="22.2592643" lon="114.2535148">
<ele>98.992</ele>
<time>2019-02-07T03:54:03.999Z</time>
</trkpt>
<trkpt lat="22.2592643" lon="114.2535148">
<ele>98.904</ele>
<time>2019-02-07T03:54:07.999Z</time>
</trkpt>
<trkpt lat="22.2592643" lon="114.2535148">
<ele>98.767</ele>
<time>2019-02-07T03:54:13.149Z</time>
</trkpt>
<trkpt lat="22.2592083" lon="114.2534195">
<ele>98.735</ele>
<time>2019-02-07T03:54:26.999Z</time>
</trkpt>
<trkpt lat="22.2592083" lon="114.2534195">
<ele>98.778</ele>
<time>2019-02-07T03:54:32.999Z</time>
</trkpt>
<trkpt lat="22.2592083" lon="114.2534195">
<ele>98.792</ele>
<time>2019-02-07T03:54:39.573Z</time>
</trkpt>
<trkpt lat="22.2591424" lon="114.2532962">
<ele>98.745</ele>
<time>2019-02-07T03:54:59.365Z</time>
</trkpt>
<trkpt lat="22.2590870" lon="114.2532182">
<ele>99.200</ele>
<time>2019-02-07T03:55:08.051Z</time>
</trkpt>
<trkpt lat="22.2590503" lon="114.2531293">
<ele>100.578</ele>
<time>2019-02-07T03:55:16.687Z</time>
</trkpt>
<trkpt lat="22.2589899" lon="114.2530574">
<ele>102.182</ele>
<time>2019-02-07T03:55:24.999Z</time>
</trkpt>
<trkpt lat="22.2589899" lon="114.2530574">
<ele>103.162</ele>
<time>2019-02-07T03:55:32.999Z</time>
</trkpt>
<trkpt lat="22.2589899" lon="114.2530574">
<ele>103.461</ele>
<time>2019-02-07T03:55:33.099Z</time>
</trkpt>
<trkpt lat="22.2589011" lon="114.2528991">
<ele>103.353</ele>
<time>2019-02-07T03:55:52.204Z</time>
</trkpt>
<trkpt lat="22.2588861" lon="114.2528026">
<ele>103.430</ele>
<time>2019-02-07T03:56:01.056Z</time>
</trkpt>
<trkpt lat="22.2588299" lon="114.2527200">
<ele>104.114</ele>
<time>2019-02-07T03:56:11.135Z</time>
</trkpt>
<trkpt lat="22.2587699" lon="114.2526380">
<ele>105.077</ele>
<time>2019-02-07T03:56:20.797Z</time>
</trkpt>
<trkpt lat="22.2587062" lon="114.2525645">
<ele>105.833</ele>
<time>2019-02-07T03:56:29.916Z</time>
</trkpt>
<trkpt lat="22.2586609" lon="114.2524791">
<ele>106.390</ele>
<time>2019-02-07T03:56:38.650Z</time>
</trkpt>
<trkpt lat="22.2585973" lon="114.2524073">
<ele>106.862</ele>
<time>2019-02-07T03:56:47.094Z</time>
</trkpt>
<trkpt lat="22.2585802" lon="114.2523052">
<ele>107.217</ele>
<time>2019-02-07T03:56:56.315Z</time>
</trkpt>
<trkpt lat="22.2585243" lon="114.2522193">
<ele>107.581</ele>
<time>2019-02-07T03:57:06.714Z</time>
</trkpt>
<trkpt lat="22.2584551" lon="114.2521569">
<ele>108.126</ele>
<time>2019-02-07T03:57:16.104Z</time>
</trkpt>
<trkpt lat="22.2583851" lon="114.2520960">
<ele>108.888</ele>
<time>2019-02-07T03:57:25.998Z</time>
</trkpt>
<trkpt lat="22.2583851" lon="114.2520960">
<ele>109.735</ele>
<time>2019-02-07T03:57:28.998Z</time>
</trkpt>
<trkpt lat="22.2583851" lon="114.2520960">
<ele>110.246</ele>
<time>2019-02-07T03:57:29.098Z</time>
</trkpt>
<trkpt lat="22.2583074" lon="114.2520389">
<ele>110.170</ele>
<time>2019-02-07T03:57:43.862Z</time>
</trkpt>
<trkpt lat="22.2582145" lon="114.2520075">
<ele>110.063</ele>
<time>2019-02-07T03:57:53.713Z</time>
</trkpt>
<trkpt lat="22.2581192" lon="114.2520090">
<ele>110.671</ele>
<time>2019-02-07T03:58:02.366Z</time>
</trkpt>
<trkpt lat="22.2580217" lon="114.2520155">
<ele>111.903</ele>
<time>2019-02-07T03:58:10.999Z</time>
</trkpt>
<trkpt lat="22.2580217" lon="114.2520155">
<ele>112.952</ele>
<time>2019-02-07T03:58:12.999Z</time>
</trkpt>
<trkpt lat="22.2580217" lon="114.2520155">
<ele>113.325</ele>
<time>2019-02-07T03:58:17.463Z</time>
</trkpt>
<trkpt lat="22.2578580" lon="114.2520786">
<ele>113.203</ele>
<time>2019-02-07T03:58:51.814Z</time>
</trkpt>
<trkpt lat="22.2577727" lon="114.2521364">
<ele>113.513</ele>
<time>2019-02-07T03:59:05.085Z</time>
</trkpt>
<trkpt lat="22.2576826" lon="114.2521551">
<ele>115.053</ele>
<time>2019-02-07T03:59:15.986Z</time>
</trkpt>
<trkpt lat="22.2575927" lon="114.2521281">
<ele>117.228</ele>
<time>2019-02-07T03:59:26.954Z</time>
</trkpt>
<trkpt lat="22.2574991" lon="114.2521466">
<ele>119.123</ele>
<time>2019-02-07T03:59:35.945Z</time>
</trkpt>
<trkpt lat="22.2574097" lon="114.2521810">
<ele>120.725</ele>
<time>2019-02-07T03:59:44.115Z</time>
</trkpt>
<trkpt lat="22.2573216" lon="114.2522034">
<ele>122.030</ele>
<time>2019-02-07T03:59:52.105Z</time>
</trkpt>
<trkpt lat="22.2572587" lon="114.2522783">
<ele>123.016</ele>
<time>2019-02-07T04:00:02.452Z</time>
</trkpt>
<trkpt lat="22.2571688" lon="114.2523053">
<ele>123.933</ele>
<time>2019-02-07T04:00:14.599Z</time>
</trkpt>
<trkpt lat="22.2570756" lon="114.2522967">
<ele>125.073</ele>
<time>2019-02-07T04:00:27.304Z</time>
</trkpt>
<trkpt lat="22.2569818" lon="114.2522994">
<ele>126.493</ele>
<time>2019-02-07T04:00:38.433Z</time>
</trkpt>
<trkpt lat="22.2568923" lon="114.2522893">
<ele>127.839</ele>
<time>2019-02-07T04:00:47.555Z</time>
</trkpt>
<trkpt lat="22.2568187" lon="114.2522196">
<ele>128.800</ele>
<time>2019-02-07T04:00:57.907Z</time>
</trkpt>
<trkpt lat="22.2567931" lon="114.2521252">
<ele>129.632</ele>
<time>2019-02-07T04:01:09.359Z</time>
</trkpt>
<trkpt lat="22.2567917" lon="114.2520250">
<ele>130.454</ele>
<time>2019-02-07T04:01:23.348Z</time>
</trkpt>
<trkpt lat="22.2568508" lon="114.2519411">
<ele>131.184</ele>
<time>2019-02-07T04:01:41.217Z</time>
</trkpt>
<trkpt lat="22.2568885" lon="114.2518499">
<ele>131.867</ele>
<time>2019-02-07T04:01:58.222Z</time>
</trkpt>
<trkpt lat="22.2568987" lon="114.2517504">
<ele>132.815</ele>
<time>2019-02-07T04:02:12.009Z</time>
</trkpt>
<trkpt lat="22.2569154" lon="114.2516420">
<ele>134.267</ele>
<time>2019-02-07T04:02:22.667Z</time>
</trkpt>
<trkpt lat="22.2569282" lon="114.2515407">
<ele>136.197</ele>
<time>2019-02-07T04:02:29.312Z</time>
</trkpt>
<trkpt lat="22.2569795" lon="114.2514471">
<ele>138.239</ele>
<time>2019-02-07T04:02:37.971Z</time>
</trkpt>
<trkpt lat="22.2570142" lon="114.2513550">
<ele>139.793</ele>
<time>2019-02-07T04:02:46.999Z</time>
</trkpt>
<trkpt lat="22.2570142" lon="114.2513550">
<ele>140.470</ele>
<time>2019-02-07T04:02:50.999Z</time>
</trkpt>
<trkpt lat="22.2570142" lon="114.2513550">
<ele>140.526</ele>
<time>2019-02-07T04:13:09.882Z</time>
</trkpt>
<trkpt lat="22.2571564" lon="114.2514309">
<ele>140.383</ele>
<time>2019-02-07T04:14:57.998Z</time>
</trkpt>
<trkpt lat="22.2571564" lon="114.2514309">
<ele>140.288</ele>
<time>2019-02-07T04:14:58.998Z</time>
</trkpt>
<trkpt lat="22.2571564" lon="114.2514309">
<ele>140.260</ele>
<time>2019-02-07T04:14:59.098Z</time>
</trkpt>
<trkpt lat="22.2570647" lon="114.2514399">
<ele>140.180</ele>
<time>2019-02-07T04:15:32.750Z</time>
</trkpt>
<trkpt lat="22.2569735" lon="114.2514400">
<ele>140.604</ele>
<time>2019-02-07T04:15:44.691Z</time>
</trkpt>
<trkpt lat="22.2568821" lon="114.2514742">
<ele>141.875</ele>
<time>2019-02-07T04:15:54.241Z</time>
</trkpt>
<trkpt lat="22.2568433" lon="114.2515677">
<ele>143.239</ele>
<time>2019-02-07T04:16:03.008Z</time>
</trkpt>
<trkpt lat="22.2568305" lon="114.2516720">
<ele>143.825</ele>
<time>2019-02-07T04:16:12.082Z</time>
</trkpt>
<trkpt lat="22.2567887" lon="114.2517614">
<ele>143.748</ele>
<time>2019-02-07T04:16:20.591Z</time>
</trkpt>
<trkpt lat="22.2567467" lon="114.2518555">
<ele>143.394</ele>
<time>2019-02-07T04:16:28.111Z</time>
</trkpt>
<trkpt lat="22.2566925" lon="114.2519349">
<ele>143.009</ele>
<time>2019-02-07T04:16:34.459Z</time>
</trkpt>
<trkpt lat="22.2566418" lon="114.2520202">
<ele>143.133</ele>
<time>2019-02-07T04:16:40.999Z</time>
</trkpt>
<trkpt lat="22.2566418" lon="114.2520202">
<ele>144.022</ele>
<time>2019-02-07T04:16:45.999Z</time>
</trkpt>
<trkpt lat="22.2566418" lon="114.2520202">
<ele>144.809</ele>
<time>2019-02-07T04:16:56.415Z</time>
</trkpt>
<trkpt lat="22.2565235" lon="114.2521199">
<ele>144.621</ele>
<time>2019-02-07T04:17:16.999Z</time>
</trkpt>
<trkpt lat="22.2565235" lon="114.2521199">
<ele>143.932</ele>
<time>2019-02-07T04:17:19.999Z</time>
</trkpt>
<trkpt lat="22.2565235" lon="114.2521199">
<ele>143.560</ele>
<time>2019-02-07T04:17:21.302Z</time>
</trkpt>
<trkpt lat="22.2564852" lon="114.2522110">
<ele>143.683</ele>
<time>2019-02-07T04:17:36.115Z</time>
</trkpt>
<trkpt lat="22.2564211" lon="114.2522875">
<ele>143.682</ele>
<time>2019-02-07T04:17:44.756Z</time>
</trkpt>
<trkpt lat="22.2563577" lon="114.2523588">
<ele>143.433</ele>
<time>2019-02-07T04:17:52.422Z</time>
</trkpt>
<trkpt lat="22.2562893" lon="114.2524251">
<ele>142.996</ele>
<time>2019-02-07T04:17:59.999Z</time>
</trkpt>
<trkpt lat="22.2562893" lon="114.2524251">
<ele>142.603</ele>
<time>2019-02-07T04:18:00.999Z</time>
</trkpt>
<trkpt lat="22.2562893" lon="114.2524251">
<ele>142.402</ele>
<time>2019-02-07T04:18:41.226Z</time>
</trkpt>
<trkpt lat="22.2562102" lon="114.2525138">
<ele>142.364</ele>
<time>2019-02-07T04:18:55.737Z</time>
</trkpt>
<trkpt lat="22.2561663" lon="114.2526031">
<ele>141.763</ele>
<time>2019-02-07T04:19:03.464Z</time>
</trkpt>
<trkpt lat="22.2561375" lon="114.2527028">
<ele>140.155</ele>
<time>2019-02-07T04:19:11.401Z</time>
</trkpt>
<trkpt lat="22.2561331" lon="114.2528044">
<ele>138.556</ele>
<time>2019-02-07T04:19:19.172Z</time>
</trkpt>
<trkpt lat="22.2561183" lon="114.2529112">
<ele>137.939</ele>
<time>2019-02-07T04:19:26.892Z</time>
</trkpt>
<trkpt lat="22.2561116" lon="114.2530180">
<ele>137.960</ele>
<time>2019-02-07T04:19:34.093Z</time>
</trkpt>
<trkpt lat="22.2561040" lon="114.2531160">
<ele>138.078</ele>
<time>2019-02-07T04:19:41.318Z</time>
</trkpt>
<trkpt lat="22.2560909" lon="114.2532133">
<ele>138.121</ele>
<time>2019-02-07T04:19:49.317Z</time>
</trkpt>
<trkpt lat="22.2560652" lon="114.2533105">
<ele>137.873</ele>
<time>2019-02-07T04:19:57.795Z</time>
</trkpt>
<trkpt lat="22.2560566" lon="114.2534121">
<ele>135.954</ele>
<time>2019-02-07T04:20:05.911Z</time>
</trkpt>
<trkpt lat="22.2560615" lon="114.2535196">
<ele>131.990</ele>
<time>2019-02-07T04:20:13.962Z</time>
</trkpt>
<trkpt lat="22.2560368" lon="114.2536257">
<ele>128.092</ele>
<time>2019-02-07T04:20:21.959Z</time>
</trkpt>
<trkpt lat="22.2560214" lon="114.2537320">
<ele>125.930</ele>
<time>2019-02-07T04:20:29.724Z</time>
</trkpt>
<trkpt lat="22.2560005" lon="114.2538289">
<ele>125.834</ele>
<time>2019-02-07T04:20:36.766Z</time>
</trkpt>
<trkpt lat="22.2559572" lon="114.2539297">
<ele>127.519</ele>
<time>2019-02-07T04:20:44.782Z</time>
</trkpt>
<trkpt lat="22.2559033" lon="114.2540121">
<ele>129.154</ele>
<time>2019-02-07T04:20:52.134Z</time>
</trkpt>
<trkpt lat="22.2558616" lon="114.2541058">
<ele>129.133</ele>
<time>2019-02-07T04:20:59.379Z</time>
</trkpt>
<trkpt lat="22.2557971" lon="114.2541858">
<ele>127.684</ele>
<time>2019-02-07T04:21:06.439Z</time>
</trkpt>
<trkpt lat="22.2557173" lon="114.2542410">
<ele>125.744</ele>
<time>2019-02-07T04:21:13.304Z</time>
</trkpt>
<trkpt lat="22.2556234" lon="114.2542889">
<ele>123.907</ele>
<time>2019-02-07T04:21:21.029Z</time>
</trkpt>
<trkpt lat="22.2555324" lon="114.2543168">
<ele>122.371</ele>
<time>2019-02-07T04:21:28.066Z</time>
</trkpt>
<trkpt lat="22.2554429" lon="114.2543465">
<ele>120.967</ele>
<time>2019-02-07T04:21:35.099Z</time>
</trkpt>
<trkpt lat="22.2553458" lon="114.2543426">
<ele>119.582</ele>
<time>2019-02-07T04:21:42.679Z</time>
</trkpt>
<trkpt lat="22.2552493" lon="114.2543192">
<ele>118.378</ele>
<time>2019-02-07T04:21:50.827Z</time>
</trkpt>
<trkpt lat="22.2551570" lon="114.2542960">
<ele>117.226</ele>
<time>2019-02-07T04:21:59.291Z</time>
</trkpt>
<trkpt lat="22.2550662" lon="114.2542671">
<ele>115.747</ele>
<time>2019-02-07T04:22:08.578Z</time>
</trkpt>
<trkpt lat="22.2549768" lon="114.2542316">
<ele>113.937</ele>
<time>2019-02-07T04:22:17.772Z</time>
</trkpt>
<trkpt lat="22.2548749" lon="114.2542058">
<ele>112.093</ele>
<time>2019-02-07T04:22:26.666Z</time>
</trkpt>
<trkpt lat="22.2547868" lon="114.2541752">
<ele>110.649</ele>
<time>2019-02-07T04:22:34.426Z</time>
</trkpt>
<trkpt lat="22.2547055" lon="114.2541318">
<ele>109.775</ele>
<time>2019-02-07T04:22:42.375Z</time>
</trkpt>
<trkpt lat="22.2546080" lon="114.2541161">
<ele>109.027</ele>
<time>2019-02-07T04:22:50.456Z</time>
</trkpt>
<trkpt lat="22.2545117" lon="114.2541159">
<ele>108.090</ele>
<time>2019-02-07T04:22:57.549Z</time>
</trkpt>
<trkpt lat="22.2544183" lon="114.2541162">
<ele>107.049</ele>
<time>2019-02-07T04:23:04.377Z</time>
</trkpt>
<trkpt lat="22.2543165" lon="114.2541276">
<ele>105.940</ele>
<time>2019-02-07T04:23:12.101Z</time>
</trkpt>
<trkpt lat="22.2542265" lon="114.2541251">
<ele>104.606</ele>
<time>2019-02-07T04:23:19.212Z</time>
</trkpt>
<trkpt lat="22.2541354" lon="114.2541531">
<ele>103.061</ele>
<time>2019-02-07T04:23:27.109Z</time>
</trkpt>
<trkpt lat="22.2540445" lon="114.2541661">
<ele>101.711</ele>
<time>2019-02-07T04:23:35.087Z</time>
</trkpt>
<trkpt lat="22.2539552" lon="114.2541926">
<ele>100.798</ele>
<time>2019-02-07T04:23:43.377Z</time>
</trkpt>
<trkpt lat="22.2538652" lon="114.2542140">
<ele>100.063</ele>
<time>2019-02-07T04:23:52.735Z</time>
</trkpt>
<trkpt lat="22.2537689" lon="114.2542302">
<ele>99.336</ele>
<time>2019-02-07T04:24:02.312Z</time>
</trkpt>
<trkpt lat="22.2536789" lon="114.2542518">
<ele>98.539</ele>
<time>2019-02-07T04:24:09.648Z</time>
</trkpt>
<trkpt lat="22.2535810" lon="114.2542539">
<ele>97.648</ele>
<time>2019-02-07T04:24:17.509Z</time>
</trkpt>
<trkpt lat="22.2534803" lon="114.2542421">
<ele>96.772</ele>
<time>2019-02-07T04:24:26.346Z</time>
</trkpt>
<trkpt lat="22.2533881" lon="114.2542224">
<ele>95.806</ele>
<time>2019-02-07T04:24:34.105Z</time>
</trkpt>
<trkpt lat="22.2532922" lon="114.2541939">
<ele>94.635</ele>
<time>2019-02-07T04:24:41.868Z</time>
</trkpt>
<trkpt lat="22.2531939" lon="114.2541661">
<ele>93.217</ele>
<time>2019-02-07T04:24:49.703Z</time>
</trkpt>
<trkpt lat="22.2530959" lon="114.2541412">
<ele>91.604</ele>
<time>2019-02-07T04:24:57.588Z</time>
</trkpt>
<trkpt lat="22.2530064" lon="114.2541242">
<ele>90.051</ele>
<time>2019-02-07T04:25:04.999Z</time>
</trkpt>
<trkpt lat="22.2530064" lon="114.2541242">
<ele>88.910</ele>
<time>2019-02-07T04:26:28.999Z</time>
</trkpt>
<trkpt lat="22.2530064" lon="114.2541242">
<ele>88.380</ele>
<time>2019-02-07T04:26:29.099Z</time>
</trkpt>
<trkpt lat="22.2530456" lon="114.2542325">
<ele>88.404</ele>
<time>2019-02-07T04:27:06.398Z</time>
</trkpt>
<trkpt lat="22.2531114" lon="114.2543112">
<ele>87.495</ele>
<time>2019-02-07T04:27:17.503Z</time>
</trkpt>
<trkpt lat="22.2531687" lon="114.2543885">
<ele>84.488</ele>
<time>2019-02-07T04:27:27.061Z</time>
</trkpt>
<trkpt lat="22.2532398" lon="114.2544611">
<ele>80.623</ele>
<time>2019-02-07T04:27:36.519Z</time>
</trkpt>
<trkpt lat="22.2533158" lon="114.2545132">
<ele>77.665</ele>
<time>2019-02-07T04:27:46.339Z</time>
</trkpt>
<trkpt lat="22.2533842" lon="114.2545777">
<ele>75.623</ele>
<time>2019-02-07T04:27:57.145Z</time>
</trkpt>
<trkpt lat="22.2534565" lon="114.2546356">
<ele>73.956</ele>
<time>2019-02-07T04:28:08.006Z</time>
</trkpt>
<trkpt lat="22.2535268" lon="114.2547106">
<ele>72.526</ele>
<time>2019-02-07T04:28:19.130Z</time>
</trkpt>
<trkpt lat="22.2535974" lon="114.2547812">
<ele>71.312</ele>
<time>2019-02-07T04:28:29.424Z</time>
</trkpt>
<trkpt lat="22.2536844" lon="114.2548182">
<ele>70.077</ele>
<time>2019-02-07T04:28:39.475Z</time>
</trkpt>
<trkpt lat="22.2537508" lon="114.2548858">
<ele>68.768</ele>
<time>2019-02-07T04:28:49.964Z</time>
</trkpt>
<trkpt lat="22.2537988" lon="114.2549699">
<ele>67.406</ele>
<time>2019-02-07T04:29:00.998Z</time>
</trkpt>
<trkpt lat="22.2537988" lon="114.2549699">
<ele>66.216</ele>
<time>2019-02-07T04:29:04.998Z</time>
</trkpt>
<trkpt lat="22.2537988" lon="114.2549699">
<ele>65.613</ele>
<time>2019-02-07T04:29:05.098Z</time>
</trkpt>
<trkpt lat="22.2538462" lon="114.2550587">
<ele>65.917</ele>
<time>2019-02-07T04:29:25.308Z</time>
</trkpt>
<trkpt lat="22.2538493" lon="114.2551576">
<ele>65.647</ele>
<time>2019-02-07T04:29:37.998Z</time>
</trkpt>
<trkpt lat="22.2538493" lon="114.2551576">
<ele>64.501</ele>
<time>2019-02-07T04:29:49.998Z</time>
</trkpt>
<trkpt lat="22.2538493" lon="114.2551576">
<ele>63.479</ele>
<time>2019-02-07T04:29:50.098Z</time>
</trkpt>
<trkpt lat="22.2537777" lon="114.2552240">
<ele>63.972</ele>
<time>2019-02-07T04:30:07.000Z</time>
</trkpt>
<trkpt lat="22.2537777" lon="114.2552240">
<ele>64.287</ele>
<time>2019-02-07T04:30:25.000Z</time>
</trkpt>
<trkpt lat="22.2537777" lon="114.2552240">
<ele>64.242</ele>
<time>2019-02-07T04:30:25.100Z</time>
</trkpt>
<trkpt lat="22.2536741" lon="114.2552706">
<ele>64.047</ele>
<time>2019-02-07T04:30:47.999Z</time>
</trkpt>
<trkpt lat="22.2536741" lon="114.2552706">
<ele>63.922</ele>
<time>2019-02-07T04:30:49.999Z</time>
</trkpt>
<trkpt lat="22.2536741" lon="114.2552706">
<ele>63.886</ele>
<time>2019-02-07T04:30:50.099Z</time>
</trkpt>
<trkpt lat="22.2535804" lon="114.2552844">
<ele>63.856</ele>
<time>2019-02-07T04:31:24.387Z</time>
</trkpt>
<trkpt lat="22.2534897" lon="114.2552996">
<ele>60.340</ele>
<time>2019-02-07T04:31:42.382Z</time>
</trkpt>
<trkpt lat="22.2534143" lon="114.2553554">
<ele>50.512</ele>
<time>2019-02-07T04:31:56.729Z</time>
</trkpt>
<trkpt lat="22.2533296" lon="114.2554025">
<ele>38.689</ele>
<time>2019-02-07T04:32:07.999Z</time>
</trkpt>
<trkpt lat="22.2533296" lon="114.2554025">
<ele>30.711</ele>
<time>2019-02-07T04:32:18.999Z</time>
</trkpt>
<trkpt lat="22.2533296" lon="114.2554025">
<ele>27.690</ele>
<time>2019-02-07T04:36:10.480Z</time>
</trkpt>
<trkpt lat="22.2534218" lon="114.2553925">
<ele>29.639</ele>
<time>2019-02-07T04:36:20.998Z</time>
</trkpt>
<trkpt lat="22.2534218" lon="114.2553925">
<ele>30.463</ele>
<time>2019-02-07T04:36:22.998Z</time>
</trkpt>
<trkpt lat="22.2534218" lon="114.2553925">
<ele>30.389</ele>
<time>2019-02-07T04:36:39.124Z</time>
</trkpt>
<trkpt lat="22.2534218" lon="114.2553925">
<ele>30.051</ele>
<time>2019-02-07T04:36:51.998Z</time>
</trkpt>
<trkpt lat="22.2534218" lon="114.2553925">
<ele>30.193</ele>
<time>2019-02-07T04:36:52.098Z</time>
</trkpt>
<trkpt lat="22.2534218" lon="114.2553925">
<ele>30.106</ele>
<time>2019-02-07T04:36:54.998Z</time>
</trkpt>
<trkpt lat="22.2534218" lon="114.2553925">
<ele>30.039</ele>
<time>2019-02-07T04:39:16.286Z</time>
</trkpt>
<trkpt lat="22.2535044" lon="114.2554935">
<ele>30.029</ele>
<time>2019-02-07T04:39:31.001Z</time>
</trkpt>
<trkpt lat="22.2535044" lon="114.2554935">
<ele>30.038</ele>
<time>2019-02-07T04:39:34.001Z</time>
</trkpt>
<trkpt lat="22.2535044" lon="114.2554935">
<ele>30.028</ele>
<time>2019-02-07T04:41:49.590Z</time>
</trkpt>
<trkpt lat="22.2535234" lon="114.2553911">
<ele>30.008</ele>
<time>2019-02-07T04:41:55.998Z</time>
</trkpt>
<trkpt lat="22.2535234" lon="114.2553911">
<ele>29.992</ele>
<time>2019-02-07T04:42:03.998Z</time>
</trkpt>
<trkpt lat="22.2535234" lon="114.2553911">
<ele>29.978</ele>
<time>2019-02-07T04:42:20.998Z</time>
</trkpt>
<trkpt lat="22.2535234" lon="114.2553911">
<ele>29.965</ele>
<time>2019-02-07T04:42:21.098Z</time>
</trkpt>
<trkpt lat="22.2534329" lon="114.2553527">
<ele>29.956</ele>
<time>2019-02-07T04:42:38.849Z</time>
</trkpt>
<trkpt lat="22.2533433" lon="114.2553891">
<ele>28.572</ele>
<time>2019-02-07T04:42:54.028Z</time>
</trkpt>
<trkpt lat="22.2532475" lon="114.2553864">
<ele>24.824</ele>
<time>2019-02-07T04:43:10.998Z</time>
</trkpt>
<trkpt lat="22.2532475" lon="114.2553864">
<ele>20.889</ele>
<time>2019-02-07T04:43:13.998Z</time>
</trkpt>
<trkpt lat="22.2532475" lon="114.2553864">
<ele>19.253</ele>
<time>2019-02-07T04:44:20.997Z</time>
</trkpt>
<trkpt lat="22.2532475" lon="114.2553864">
<ele>19.525</ele>
<time>2019-02-07T04:45:23.919Z</time>
</trkpt>
<trkpt lat="22.2532475" lon="114.2553864">
<ele>20.020</ele>
<time>2019-02-07T04:48:15.000Z</time>
</trkpt>
<trkpt lat="22.2532475" lon="114.2553864">
<ele>19.685</ele>
<time>2019-02-07T04:49:25.474Z</time>
</trkpt>
<trkpt lat="22.2534243" lon="114.2553415">
<ele>19.650</ele>
<time>2019-02-07T04:50:44.998Z</time>
</trkpt>
<trkpt lat="22.2534243" lon="114.2553415">
<ele>19.773</ele>
<time>2019-02-07T04:51:08.998Z</time>
</trkpt>
<trkpt lat="22.2534243" lon="114.2553415">
<ele>19.782</ele>
<time>2019-02-07T04:51:09.098Z</time>
</trkpt>
<trkpt lat="22.2535408" lon="114.2552848">
<ele>19.719</ele>
<time>2019-02-07T04:51:32.998Z</time>
</trkpt>
<trkpt lat="22.2535408" lon="114.2552848">
<ele>19.701</ele>
<time>2019-02-07T04:51:43.997Z</time>
</trkpt>
<trkpt lat="22.2535408" lon="114.2552848">
<ele>19.715</ele>
<time>2019-02-07T04:51:44.097Z</time>
</trkpt>
<trkpt lat="22.2535408" lon="114.2552848">
<ele>19.697</ele>
<time>2019-02-07T04:52:00.997Z</time>
</trkpt>
<trkpt lat="22.2535408" lon="114.2552848">
<ele>19.682</ele>
<time>2019-02-07T04:53:12.854Z</time>
</trkpt>
<trkpt lat="22.2536765" lon="114.2552750">
<ele>19.677</ele>
<time>2019-02-07T04:53:28.997Z</time>
</trkpt>
<trkpt lat="22.2536765" lon="114.2552750">
<ele>19.679</ele>
<time>2019-02-07T04:53:54.996Z</time>
</trkpt>
<trkpt lat="22.2536765" lon="114.2552750">
<ele>19.677</ele>
<time>2019-02-07T04:54:11.996Z</time>
</trkpt>
<trkpt lat="22.2536765" lon="114.2552750">
<ele>19.668</ele>
<time>2019-02-07T04:54:12.096Z</time>
</trkpt>
<trkpt lat="22.2538288" lon="114.2552432">
<ele>19.659</ele>
<time>2019-02-07T04:54:24.996Z</time>
</trkpt>
<trkpt lat="22.2538288" lon="114.2552432">
<ele>19.654</ele>
<time>2019-02-07T04:54:29.996Z</time>
</trkpt>
<trkpt lat="22.2538288" lon="114.2552432">
<ele>19.651</ele>
<time>2019-02-07T04:54:42.996Z</time>
</trkpt>
<trkpt lat="22.2538288" lon="114.2552432">
<ele>19.644</ele>
<time>2019-02-07T04:54:43.096Z</time>
</trkpt>
<trkpt lat="22.2538288" lon="114.2552432">
<ele>19.630</ele>
<time>2019-02-07T04:55:00.996Z</time>
</trkpt>
<trkpt lat="22.2538288" lon="114.2552432">
<ele>19.625</ele>
<time>2019-02-07T04:55:16.631Z</time>
</trkpt>
<trkpt lat="22.2538288" lon="114.2552432">
<ele>19.612</ele>
<time>2019-02-07T04:56:39.999Z</time>
</trkpt>
<trkpt lat="22.2538288" lon="114.2552432">
<ele>19.606</ele>
<time>2019-02-07T04:56:40.099Z</time>
</trkpt>
<trkpt lat="22.2538288" lon="114.2552432">
<ele>19.593</ele>
<time>2019-02-07T04:56:41.999Z</time>
</trkpt>
<trkpt lat="22.2538288" lon="114.2552432">
<ele>19.587</ele>
<time>2019-02-07T04:57:45.412Z</time>
</trkpt>
<trkpt lat="22.2538634" lon="114.2551400">
<ele>19.582</ele>
<time>2019-02-07T04:58:07.916Z</time>
</trkpt>
<trkpt lat="22.2538645" lon="114.2550428">
<ele>24.177</ele>
<time>2019-02-07T04:58:25.628Z</time>
</trkpt>
<trkpt lat="22.2538371" lon="114.2549485">
<ele>36.485</ele>
<time>2019-02-07T04:58:55.998Z</time>
</trkpt>
<trkpt lat="22.2538371" lon="114.2549485">
<ele>49.640</ele>
<time>2019-02-07T04:59:02.998Z</time>
</trkpt>
<trkpt lat="22.2538371" lon="114.2549485">
<ele>55.577</ele>
<time>2019-02-07T04:59:03.098Z</time>
</trkpt>
<trkpt lat="22.2536896" lon="114.2548004">
<ele>54.852</ele>
<time>2019-02-07T04:59:39.998Z</time>
</trkpt>
<trkpt lat="22.2536896" lon="114.2548004">
<ele>52.557</ele>
<time>2019-02-07T04:59:43.998Z</time>
</trkpt>
<trkpt lat="22.2536896" lon="114.2548004">
<ele>52.373</ele>
<time>2019-02-07T04:59:55.345Z</time>
</trkpt>
<trkpt lat="22.2535298" lon="114.2546729">
<ele>53.608</ele>
<time>2019-02-07T05:00:42.450Z</time>
</trkpt>
<trkpt lat="22.2534612" lon="114.2546064">
<ele>55.610</ele>
<time>2019-02-07T05:01:00.045Z</time>
</trkpt>
<trkpt lat="22.2533776" lon="114.2545542">
<ele>58.990</ele>
<time>2019-02-07T05:01:18.058Z</time>
</trkpt>
<trkpt lat="22.2533011" lon="114.2545014">
<ele>62.762</ele>
<time>2019-02-07T05:01:34.997Z</time>
</trkpt>
<trkpt lat="22.2533011" lon="114.2545014">
<ele>65.262</ele>
<time>2019-02-07T05:01:46.997Z</time>
</trkpt>
<trkpt lat="22.2533011" lon="114.2545014">
<ele>66.149</ele>
<time>2019-02-07T05:01:56.081Z</time>
</trkpt>
<trkpt lat="22.2531439" lon="114.2543519">
<ele>65.964</ele>
<time>2019-02-07T05:02:26.148Z</time>
</trkpt>
<trkpt lat="22.2530921" lon="114.2542682">
<ele>66.462</ele>
<time>2019-02-07T05:02:35.999Z</time>
</trkpt>
<trkpt lat="22.2530921" lon="114.2542682">
<ele>68.675</ele>
<time>2019-02-07T05:02:53.999Z</time>
</trkpt>
<trkpt lat="22.2530921" lon="114.2542682">
<ele>70.669</ele>
<time>2019-02-07T05:02:54.099Z</time>
</trkpt>
<trkpt lat="22.2530182" lon="114.2541416">
<ele>70.625</ele>
<time>2019-02-07T05:03:39.999Z</time>
</trkpt>
<trkpt lat="22.2530182" lon="114.2541416">
<ele>69.801</ele>
<time>2019-02-07T05:03:42.999Z</time>
</trkpt>
<trkpt lat="22.2530182" lon="114.2541416">
<ele>69.693</ele>
<time>2019-02-07T05:04:43.068Z</time>
</trkpt>
<trkpt lat="22.2529349" lon="114.2540620">
<ele>70.054</ele>
<time>2019-02-07T05:05:04.553Z</time>
</trkpt>
<trkpt lat="22.2528300" lon="114.2540539">
<ele>71.235</ele>
<time>2019-02-07T05:05:11.827Z</time>
</trkpt>
<trkpt lat="22.2527322" lon="114.2540413">
<ele>74.597</ele>
<time>2019-02-07T05:05:18.397Z</time>
</trkpt>
<trkpt lat="22.2526377" lon="114.2540254">
<ele>77.962</ele>
<time>2019-02-07T05:05:25.317Z</time>
</trkpt>
<trkpt lat="22.2525477" lon="114.2540073">
<ele>79.148</ele>
<time>2019-02-07T05:05:31.956Z</time>
</trkpt>
<trkpt lat="22.2524576" lon="114.2539968">
<ele>78.706</ele>
<time>2019-02-07T05:05:38.544Z</time>
</trkpt>
<trkpt lat="22.2523666" lon="114.2539618">
<ele>77.629</ele>
<time>2019-02-07T05:05:45.590Z</time>
</trkpt>
<trkpt lat="22.2522789" lon="114.2539380">
<ele>76.498</ele>
<time>2019-02-07T05:05:51.989Z</time>
</trkpt>
<trkpt lat="22.2521891" lon="114.2539000">
<ele>75.551</ele>
<time>2019-02-07T05:05:58.563Z</time>
</trkpt>
<trkpt lat="22.2521027" lon="114.2538552">
<ele>74.664</ele>
<time>2019-02-07T05:06:05.022Z</time>
</trkpt>
<trkpt lat="22.2520090" lon="114.2538171">
<ele>73.791</ele>
<time>2019-02-07T05:06:11.808Z</time>
</trkpt>
<trkpt lat="22.2519193" lon="114.2537613">
<ele>73.059</ele>
<time>2019-02-07T05:06:18.853Z</time>
</trkpt>
<trkpt lat="22.2518313" lon="114.2537392">
<ele>72.434</ele>
<time>2019-02-07T05:06:24.998Z</time>
</trkpt>
<trkpt lat="22.2518313" lon="114.2537392">
<ele>71.948</ele>
<time>2019-02-07T05:06:29.998Z</time>
</trkpt>
<trkpt lat="22.2518313" lon="114.2537392">
<ele>71.724</ele>
<time>2019-02-07T05:06:30.098Z</time>
</trkpt>
<trkpt lat="22.2517479" lon="114.2536719">
<ele>71.720</ele>
<time>2019-02-07T05:06:43.149Z</time>
</trkpt>
<trkpt lat="22.2516575" lon="114.2536524">
<ele>71.574</ele>
<time>2019-02-07T05:06:50.501Z</time>
</trkpt>
<trkpt lat="22.2515608" lon="114.2536168">
<ele>70.989</ele>
<time>2019-02-07T05:06:57.374Z</time>
</trkpt>
<trkpt lat="22.2514715" lon="114.2535851">
<ele>70.159</ele>
<time>2019-02-07T05:07:02.998Z</time>
</trkpt>
<trkpt lat="22.2514715" lon="114.2535851">
<ele>69.462</ele>
<time>2019-02-07T05:07:07.998Z</time>
</trkpt>
<trkpt lat="22.2514715" lon="114.2535851">
<ele>69.116</ele>
<time>2019-02-07T05:07:09.984Z</time>
</trkpt>
<trkpt lat="22.2513116" lon="114.2534951">
<ele>69.123</ele>
<time>2019-02-07T05:07:28.998Z</time>
</trkpt>
<trkpt lat="22.2513116" lon="114.2534951">
<ele>69.216</ele>
<time>2019-02-07T05:07:42.998Z</time>
</trkpt>
<trkpt lat="22.2513116" lon="114.2534951">
<ele>69.197</ele>
<time>2019-02-07T05:07:43.098Z</time>
</trkpt>
<trkpt lat="22.2512774" lon="114.2533988">
<ele>69.096</ele>
<time>2019-02-07T05:08:01.998Z</time>
</trkpt>
<trkpt lat="22.2512774" lon="114.2533988">
<ele>69.093</ele>
<time>2019-02-07T05:08:01.998Z</time>
</trkpt>
<trkpt lat="22.2512774" lon="114.2533988">
<ele>69.068</ele>
<time>2019-02-07T05:08:02.098Z</time>
</trkpt>
<trkpt lat="22.2512774" lon="114.2533988">
<ele>69.012</ele>
<time>2019-02-07T05:08:15.998Z</time>
</trkpt>
<trkpt lat="22.2512774" lon="114.2533988">
<ele>68.999</ele>
<time>2019-02-07T05:08:28.998Z</time>
</trkpt>
<trkpt lat="22.2512774" lon="114.2533988">
<ele>68.976</ele>
<time>2019-02-07T05:08:29.098Z</time>
</trkpt>
<trkpt lat="22.2514238" lon="114.2532976">
<ele>68.949</ele>
<time>2019-02-07T05:09:02.203Z</time>
</trkpt>
<trkpt lat="22.2514912" lon="114.2532196">
<ele>69.231</ele>
<time>2019-02-07T05:09:09.479Z</time>
</trkpt>
<trkpt lat="22.2515274" lon="114.2531293">
<ele>70.117</ele>
<time>2019-02-07T05:09:14.997Z</time>
</trkpt>
<trkpt lat="22.2515274" lon="114.2531293">
<ele>71.213</ele>
<time>2019-02-07T05:09:25.000Z</time>
</trkpt>
<trkpt lat="22.2515274" lon="114.2531293">
<ele>71.791</ele>
<time>2019-02-07T05:09:36.989Z</time>
</trkpt>
<trkpt lat="22.2515747" lon="114.2529535">
<ele>71.713</ele>
<time>2019-02-07T05:09:52.000Z</time>
</trkpt>
<trkpt lat="22.2515747" lon="114.2529535">
<ele>71.449</ele>
<time>2019-02-07T05:10:02.999Z</time>
</trkpt>
<trkpt lat="22.2515747" lon="114.2529535">
<ele>71.402</ele>
<time>2019-02-07T05:10:03.099Z</time>
</trkpt>
<trkpt lat="22.2516618" lon="114.2528394">
<ele>71.510</ele>
<time>2019-02-07T05:10:10.999Z</time>
</trkpt>
<trkpt lat="22.2516618" lon="114.2528394">
<ele>71.577</ele>
<time>2019-02-07T05:10:21.999Z</time>
</trkpt>
<trkpt lat="22.2516618" lon="114.2528394">
<ele>71.554</ele>
<time>2019-02-07T05:10:22.099Z</time>
</trkpt>
<trkpt lat="22.2516978" lon="114.2526785">
<ele>71.506</ele>
<time>2019-02-07T05:10:32.999Z</time>
</trkpt>
<trkpt lat="22.2516978" lon="114.2526785">
<ele>71.486</ele>
<time>2019-02-07T05:10:36.999Z</time>
</trkpt>
<trkpt lat="22.2516978" lon="114.2526785">
<ele>71.475</ele>
<time>2019-02-07T05:10:39.151Z</time>
</trkpt>
<trkpt lat="22.2516791" lon="114.2525596">
<ele>71.422</ele>
<time>2019-02-07T05:10:54.147Z</time>
</trkpt>
<trkpt lat="22.2516464" lon="114.2524656">
<ele>71.490</ele>
<time>2019-02-07T05:10:59.999Z</time>
</trkpt>
<trkpt lat="22.2516464" lon="114.2524656">
<ele>71.707</ele>
<time>2019-02-07T05:11:06.999Z</time>
</trkpt>
<trkpt lat="22.2516464" lon="114.2524656">
<ele>71.882</ele>
<time>2019-02-07T05:11:15.034Z</time>
</trkpt>
<trkpt lat="22.2515910" lon="114.2523387">
<ele>71.850</ele>
<time>2019-02-07T05:11:31.999Z</time>
</trkpt>
<trkpt lat="22.2515910" lon="114.2523387">
<ele>71.741</ele>
<time>2019-02-07T05:11:39.999Z</time>
</trkpt>
<trkpt lat="22.2515910" lon="114.2523387">
<ele>71.704</ele>
<time>2019-02-07T05:12:09.406Z</time>
</trkpt>
<trkpt lat="22.2514832" lon="114.2521640">
<ele>71.712</ele>
<time>2019-02-07T05:12:37.893Z</time>
</trkpt>
<trkpt lat="22.2514130" lon="114.2520908">
<ele>71.657</ele>
<time>2019-02-07T05:12:46.092Z</time>
</trkpt>
<trkpt lat="22.2513466" lon="114.2520052">
<ele>71.473</ele>
<time>2019-02-07T05:12:54.021Z</time>
</trkpt>
<trkpt lat="22.2512906" lon="114.2519199">
<ele>71.222</ele>
<time>2019-02-07T05:13:01.270Z</time>
</trkpt>
<trkpt lat="22.2512383" lon="114.2518317">
<ele>71.030</ele>
<time>2019-02-07T05:13:08.875Z</time>
</trkpt>
<trkpt lat="22.2512086" lon="114.2517385">
<ele>70.836</ele>
<time>2019-02-07T05:13:15.998Z</time>
</trkpt>
<trkpt lat="22.2512086" lon="114.2517385">
<ele>70.544</ele>
<time>2019-02-07T05:13:41.998Z</time>
</trkpt>
<trkpt lat="22.2512086" lon="114.2517385">
<ele>70.313</ele>
<time>2019-02-07T05:14:02.998Z</time>
</trkpt>
<trkpt lat="22.2512086" lon="114.2517385">
<ele>70.291</ele>
<time>2019-02-07T05:14:03.098Z</time>
</trkpt>
<trkpt lat="22.2511446" lon="114.2515920">
<ele>70.376</ele>
<time>2019-02-07T05:14:26.998Z</time>
</trkpt>
<trkpt lat="22.2511446" lon="114.2515920">
<ele>70.423</ele>
<time>2019-02-07T05:14:31.998Z</time>
</trkpt>
<trkpt lat="22.2511446" lon="114.2515920">
<ele>70.398</ele>
<time>2019-02-07T05:14:50.998Z</time>
</trkpt>
<trkpt lat="22.2511446" lon="114.2515920">
<ele>70.351</ele>
<time>2019-02-07T05:15:08.610Z</time>
</trkpt>
<trkpt lat="22.2510580" lon="114.2514414">
<ele>70.326</ele>
<time>2019-02-07T05:15:54.997Z</time>
</trkpt>
<trkpt lat="22.2510580" lon="114.2514414">
<ele>70.321</ele>
<time>2019-02-07T05:16:03.997Z</time>
</trkpt>
<trkpt lat="22.2510580" lon="114.2514414">
<ele>70.311</ele>
<time>2019-02-07T05:19:56.024Z</time>
</trkpt>
<trkpt lat="22.2510475" lon="114.2512385">
<ele>70.283</ele>
<time>2019-02-07T05:20:22.998Z</time>
</trkpt>
<trkpt lat="22.2510475" lon="114.2512385">
<ele>70.254</ele>
<time>2019-02-07T05:20:30.998Z</time>
</trkpt>
<trkpt lat="22.2510475" lon="114.2512385">
<ele>70.234</ele>
<time>2019-02-07T05:22:22.801Z</time>
</trkpt>
<trkpt lat="22.2509316" lon="114.2511902">
<ele>70.216</ele>
<time>2019-02-07T05:24:40.997Z</time>
</trkpt>
<trkpt lat="22.2509316" lon="114.2511902">
<ele>70.200</ele>
<time>2019-02-07T05:24:46.997Z</time>
</trkpt>
<trkpt lat="22.2509316" lon="114.2511902">
<ele>70.180</ele>
<time>2019-02-07T05:24:47.097Z</time>
</trkpt>
<trkpt lat="22.2509316" lon="114.2511902">
<ele>70.130</ele>
<time>2019-02-07T05:25:05.997Z</time>
</trkpt>
<trkpt lat="22.2509316" lon="114.2511902">
<ele>70.111</ele>
<time>2019-02-07T05:25:23.000Z</time>
</trkpt>
<trkpt lat="22.2509316" lon="114.2511902">
<ele>70.088</ele>
<time>2019-02-07T05:25:23.100Z</time>
</trkpt>
<trkpt lat="22.2509583" lon="114.2510854">
<ele>70.064</ele>
<time>2019-02-07T05:25:40.000Z</time>
</trkpt>
<trkpt lat="22.2509583" lon="114.2510854">
<ele>70.047</ele>
<time>2019-02-07T05:25:43.000Z</time>
</trkpt>
<trkpt lat="22.2509583" lon="114.2510854">
<ele>70.029</ele>
<time>2019-02-07T05:25:43.100Z</time>
</trkpt>
<trkpt lat="22.2509178" lon="114.2509919">
<ele>69.979</ele>
<time>2019-02-07T05:26:41.466Z</time>
</trkpt>
<trkpt lat="22.2509820" lon="114.2509179">
<ele>74.709</ele>
<time>2019-02-07T05:27:14.698Z</time>
</trkpt>
<trkpt lat="22.2510243" lon="114.2508295">
<ele>87.520</ele>
<time>2019-02-07T05:27:39.999Z</time>
</trkpt>
<trkpt lat="22.2510243" lon="114.2508295">
<ele>101.398</ele>
<time>2019-02-07T05:27:51.999Z</time>
</trkpt>
<trkpt lat="22.2510243" lon="114.2508295">
<ele>107.773</ele>
<time>2019-02-07T05:27:52.099Z</time>
</trkpt>
<trkpt lat="22.2509959" lon="114.2507320">
<ele>103.732</ele>
<time>2019-02-07T05:28:14.953Z</time>
</trkpt>
<trkpt lat="22.2509594" lon="114.2506332">
<ele>102.167</ele>
<time>2019-02-07T05:28:27.716Z</time>
</trkpt>
<trkpt lat="22.2509227" lon="114.2505383">
<ele>103.233</ele>
<time>2019-02-07T05:28:37.910Z</time>
</trkpt>
<trkpt lat="22.2508498" lon="114.2504715">
<ele>105.209</ele>
<time>2019-02-07T05:28:48.856Z</time>
</trkpt>
<trkpt lat="22.2508190" lon="114.2503711">
<ele>106.322</ele>
<time>2019-02-07T05:29:03.095Z</time>
</trkpt>
<trkpt lat="22.2507607" lon="114.2502938">
<ele>106.508</ele>
<time>2019-02-07T05:29:21.207Z</time>
</trkpt>
<trkpt lat="22.2507371" lon="114.2501982">
<ele>106.319</ele>
<time>2019-02-07T05:29:41.998Z</time>
</trkpt>
<trkpt lat="22.2507371" lon="114.2501982">
<ele>106.142</ele>
<time>2019-02-07T05:29:42.998Z</time>
</trkpt>
<trkpt lat="22.2507371" lon="114.2501982">
<ele>106.074</ele>
<time>2019-02-07T05:29:43.098Z</time>
</trkpt>
<trkpt lat="22.2506512" lon="114.2500201">
<ele>106.073</ele>
<time>2019-02-07T05:30:52.998Z</time>
</trkpt>
<trkpt lat="22.2506512" lon="114.2500201">
<ele>106.090</ele>
<time>2019-02-07T05:30:56.998Z</time>
</trkpt>
<trkpt lat="22.2506512" lon="114.2500201">
<ele>106.075</ele>
<time>2019-02-07T05:30:57.098Z</time>
</trkpt>
<trkpt lat="22.2505677" lon="114.2499820">
<ele>105.977</ele>
<time>2019-02-07T05:31:09.997Z</time>
</trkpt>
<trkpt lat="22.2505677" lon="114.2499820">
<ele>105.960</ele>
<time>2019-02-07T05:31:15.997Z</time>
</trkpt>
<trkpt lat="22.2505677" lon="114.2499820">
<ele>105.944</ele>
<time>2019-02-07T05:31:21.436Z</time>
</trkpt>
<trkpt lat="22.2504776" lon="114.2499324">
<ele>105.907</ele>
<time>2019-02-07T05:31:33.997Z</time>
</trkpt>
<trkpt lat="22.2504776" lon="114.2499324">
<ele>105.867</ele>
<time>2019-02-07T05:31:41.997Z</time>
</trkpt>
<trkpt lat="22.2504776" lon="114.2499324">
<ele>105.835</ele>
<time>2019-02-07T05:31:42.097Z</time>
</trkpt>
<trkpt lat="22.2503827" lon="114.2499131">
<ele>105.767</ele>
<time>2019-02-07T05:32:20.881Z</time>
</trkpt>
<trkpt lat="22.2502936" lon="114.2499257">
<ele>105.798</ele>
<time>2019-02-07T05:32:43.474Z</time>
</trkpt>
<trkpt lat="22.2501946" lon="114.2499235">
<ele>105.943</ele>
<time>2019-02-07T05:32:59.100Z</time>
</trkpt>
<trkpt lat="22.2501013" lon="114.2499137">
<ele>106.179</ele>
<time>2019-02-07T05:33:13.713Z</time>
</trkpt>
<trkpt lat="22.2500119" lon="114.2498841">
<ele>106.707</ele>
<time>2019-02-07T05:33:25.929Z</time>
</trkpt>
<trkpt lat="22.2499201" lon="114.2498566">
<ele>107.601</ele>
<time>2019-02-07T05:33:34.864Z</time>
</trkpt>
<trkpt lat="22.2498327" lon="114.2498279">
<ele>108.406</ele>
<time>2019-02-07T05:33:43.120Z</time>
</trkpt>
<trkpt lat="22.2497419" lon="114.2498203">
<ele>108.764</ele>
<time>2019-02-07T05:33:51.808Z</time>
</trkpt>
<trkpt lat="22.2496571" lon="114.2497797">
<ele>109.051</ele>
<time>2019-02-07T05:34:01.625Z</time>
</trkpt>
<trkpt lat="22.2495652" lon="114.2497721">
<ele>109.752</ele>
<time>2019-02-07T05:34:11.999Z</time>
</trkpt>
<trkpt lat="22.2495652" lon="114.2497721">
<ele>110.679</ele>
<time>2019-02-07T05:34:17.999Z</time>
</trkpt>
<trkpt lat="22.2495652" lon="114.2497721">
<ele>111.193</ele>
<time>2019-02-07T05:34:18.099Z</time>
</trkpt>
<trkpt lat="22.2494343" lon="114.2497513">
<ele>111.109</ele>
<time>2019-02-07T05:34:30.973Z</time>
</trkpt>
<trkpt lat="22.2493409" lon="114.2497395">
<ele>110.788</ele>
<time>2019-02-07T05:34:38.253Z</time>
</trkpt>
<trkpt lat="22.2492442" lon="114.2497518">
<ele>110.535</ele>
<time>2019-02-07T05:34:46.174Z</time>
</trkpt>
<trkpt lat="22.2491568" lon="114.2497289">
<ele>110.553</ele>
<time>2019-02-07T05:34:53.760Z</time>
</trkpt>
<trkpt lat="22.2490711" lon="114.2496745">
<ele>110.912</ele>
<time>2019-02-07T05:35:01.999Z</time>
</trkpt>
<trkpt lat="22.2490711" lon="114.2496745">
<ele>111.778</ele>
<time>2019-02-07T05:35:13.999Z</time>
</trkpt>
<trkpt lat="22.2490711" lon="114.2496745">
<ele>112.463</ele>
<time>2019-02-07T05:35:14.168Z</time>
</trkpt>
<trkpt lat="22.2489568" lon="114.2495754">
<ele>112.403</ele>
<time>2019-02-07T05:35:39.027Z</time>
</trkpt>
<trkpt lat="22.2488726" lon="114.2495358">
<ele>112.041</ele>
<time>2019-02-07T05:35:51.330Z</time>
</trkpt>
<trkpt lat="22.2487794" lon="114.2495586">
<ele>111.892</ele>
<time>2019-02-07T05:36:03.846Z</time>
</trkpt>
<trkpt lat="22.2486928" lon="114.2496033">
<ele>111.737</ele>
<time>2019-02-07T05:36:14.447Z</time>
</trkpt>
<trkpt lat="22.2486045" lon="114.2496246">
<ele>110.584</ele>
<time>2019-02-07T05:36:23.378Z</time>
</trkpt>
<trkpt lat="22.2485067" lon="114.2496316">
<ele>107.950</ele>
<time>2019-02-07T05:36:31.999Z</time>
</trkpt>
<trkpt lat="22.2485067" lon="114.2496316">
<ele>105.027</ele>
<time>2019-02-07T05:36:46.999Z</time>
</trkpt>
<trkpt lat="22.2485067" lon="114.2496316">
<ele>103.496</ele>
<time>2019-02-07T05:36:59.861Z</time>
</trkpt>
<trkpt lat="22.2483749" lon="114.2495370">
<ele>103.589</ele>
<time>2019-02-07T05:38:06.574Z</time>
</trkpt>
<trkpt lat="22.2482894" lon="114.2494979">
<ele>102.770</ele>
<time>2019-02-07T05:38:19.361Z</time>
</trkpt>
<trkpt lat="22.2482011" lon="114.2494720">
<ele>98.807</ele>
<time>2019-02-07T05:38:29.434Z</time>
</trkpt>
<trkpt lat="22.2481139" lon="114.2494345">
<ele>93.257</ele>
<time>2019-02-07T05:38:38.095Z</time>
</trkpt>
<trkpt lat="22.2480240" lon="114.2493956">
<ele>88.687</ele>
<time>2019-02-07T05:38:45.998Z</time>
</trkpt>
<trkpt lat="22.2480240" lon="114.2493956">
<ele>85.861</ele>
<time>2019-02-07T05:38:51.998Z</time>
</trkpt>
<trkpt lat="22.2480240" lon="114.2493956">
<ele>84.808</ele>
<time>2019-02-07T05:39:04.930Z</time>
</trkpt>
<trkpt lat="22.2479150" lon="114.2493525">
<ele>84.948</ele>
<time>2019-02-07T05:39:23.410Z</time>
</trkpt>
<trkpt lat="22.2478248" lon="114.2493087">
<ele>84.701</ele>
<time>2019-02-07T05:39:34.002Z</time>
</trkpt>
<trkpt lat="22.2477371" lon="114.2492777">
<ele>82.791</ele>
<time>2019-02-07T05:39:44.998Z</time>
</trkpt>
<trkpt lat="22.2477371" lon="114.2492777">
<ele>80.059</ele>
<time>2019-02-07T05:39:56.998Z</time>
</trkpt>
<trkpt lat="22.2477371" lon="114.2492777">
<ele>78.468</ele>
<time>2019-02-07T05:50:01.159Z</time>
</trkpt>
<trkpt lat="22.2476134" lon="114.2492443">
<ele>78.546</ele>
<time>2019-02-07T05:50:39.999Z</time>
</trkpt>
<trkpt lat="22.2476134" lon="114.2492443">
<ele>79.116</ele>
<time>2019-02-07T05:50:49.999Z</time>
</trkpt>
<trkpt lat="22.2476134" lon="114.2492443">
<ele>79.136</ele>
<time>2019-02-07T05:51:24.450Z</time>
</trkpt>
<trkpt lat="22.2474938" lon="114.2492250">
<ele>78.779</ele>
<time>2019-02-07T05:51:39.999Z</time>
</trkpt>
<trkpt lat="22.2474938" lon="114.2492250">
<ele>78.537</ele>
<time>2019-02-07T05:51:49.999Z</time>
</trkpt>
<trkpt lat="22.2474938" lon="114.2492250">
<ele>78.483</ele>
<time>2019-02-07T05:51:50.099Z</time>
</trkpt>
<trkpt lat="22.2473898" lon="114.2492242">
<ele>78.482</ele>
<time>2019-02-07T05:52:12.999Z</time>
</trkpt>
<trkpt lat="22.2473898" lon="114.2492242">
<ele>78.455</ele>
<time>2019-02-07T05:52:26.999Z</time>
</trkpt>
<trkpt lat="22.2473898" lon="114.2492242">
<ele>78.417</ele>
<time>2019-02-07T05:52:27.099Z</time>
</trkpt>
<trkpt lat="22.2472816" lon="114.2491964">
<ele>78.382</ele>
<time>2019-02-07T05:52:49.534Z</time>
</trkpt>
<trkpt lat="22.2471939" lon="114.2491608">
<ele>75.838</ele>
<time>2019-02-07T05:53:02.049Z</time>
</trkpt>
<trkpt lat="22.2471032" lon="114.2491496">
<ele>68.817</ele>
<time>2019-02-07T05:53:12.999Z</time>
</trkpt>
<trkpt lat="22.2471032" lon="114.2491496">
<ele>60.919</ele>
<time>2019-02-07T05:53:23.999Z</time>
</trkpt>
<trkpt lat="22.2471032" lon="114.2491496">
<ele>57.082</ele>
<time>2019-02-07T05:53:39.999Z</time>
</trkpt>
<trkpt lat="22.2471032" lon="114.2491496">
<ele>57.454</ele>
<time>2019-02-07T05:53:40.099Z</time>
</trkpt>
<trkpt lat="22.2470156" lon="114.2491063">
<ele>58.839</ele>
<time>2019-02-07T05:54:03.369Z</time>
</trkpt>
<trkpt lat="22.2469236" lon="114.2490845">
<ele>58.084</ele>
<time>2019-02-07T05:54:12.999Z</time>
</trkpt>
<trkpt lat="22.2469236" lon="114.2490845">
<ele>55.277</ele>
<time>2019-02-07T05:54:13.999Z</time>
</trkpt>
<trkpt lat="22.2469236" lon="114.2490845">
<ele>53.133</ele>
<time>2019-02-07T05:54:14.099Z</time>
</trkpt>
<trkpt lat="22.2469236" lon="114.2490845">
<ele>54.271</ele>
<time>2019-02-07T05:54:27.999Z</time>
</trkpt>
<trkpt lat="22.2469236" lon="114.2490845">
<ele>54.947</ele>
<time>2019-02-07T05:54:28.099Z</time>
</trkpt>
<trkpt lat="22.2467955" lon="114.2490835">
<ele>54.734</ele>
<time>2019-02-07T05:54:41.441Z</time>
</trkpt>
<trkpt lat="22.2467203" lon="114.2491379">
<ele>52.737</ele>
<time>2019-02-07T05:54:48.000Z</time>
</trkpt>
<trkpt lat="22.2467203" lon="114.2491379">
<ele>48.879</ele>
<time>2019-02-07T05:54:51.000Z</time>
</trkpt>
<trkpt lat="22.2467203" lon="114.2491379">
<ele>45.954</ele>
<time>2019-02-07T05:54:51.100Z</time>
</trkpt>
<trkpt lat="22.2466513" lon="114.2492229">
<ele>47.533</ele>
<time>2019-02-07T05:55:07.000Z</time>
</trkpt>
<trkpt lat="22.2466513" lon="114.2492229">
<ele>48.465</ele>
<time>2019-02-07T05:55:09.000Z</time>
</trkpt>
<trkpt lat="22.2466513" lon="114.2492229">
<ele>48.391</ele>
<time>2019-02-07T05:55:09.890Z</time>
</trkpt>
<trkpt lat="22.2465589" lon="114.2492070">
<ele>47.987</ele>
<time>2019-02-07T05:55:36.177Z</time>
</trkpt>
<trkpt lat="22.2464892" lon="114.2491420">
<ele>46.419</ele>
<time>2019-02-07T05:55:49.123Z</time>
</trkpt>
<trkpt lat="22.2464463" lon="114.2490540">
<ele>41.589</ele>
<time>2019-02-07T05:56:00.230Z</time>
</trkpt>
<trkpt lat="22.2464117" lon="114.2489621">
<ele>35.633</ele>
<time>2019-02-07T05:56:11.556Z</time>
</trkpt>
<trkpt lat="22.2463859" lon="114.2488600">
<ele>31.243</ele>
<time>2019-02-07T05:56:25.712Z</time>
</trkpt>
<trkpt lat="22.2463605" lon="114.2487636">
<ele>28.209</ele>
<time>2019-02-07T05:56:39.999Z</time>
</trkpt>
<trkpt lat="22.2463605" lon="114.2487636">
<ele>25.913</ele>
<time>2019-02-07T05:56:50.999Z</time>
</trkpt>
<trkpt lat="22.2463605" lon="114.2487636">
<ele>24.719</ele>
<time>2019-02-07T05:56:51.099Z</time>
</trkpt>
<trkpt lat="22.2463393" lon="114.2486623">
<ele>25.412</ele>
<time>2019-02-07T05:57:06.999Z</time>
</trkpt>
<trkpt lat="22.2463393" lon="114.2486623">
<ele>25.764</ele>
<time>2019-02-07T05:57:28.999Z</time>
</trkpt>
<trkpt lat="22.2463393" lon="114.2486623">
<ele>25.730</ele>
<time>2019-02-07T05:57:29.099Z</time>
</trkpt>
<trkpt lat="22.2463737" lon="114.2485404">
<ele>25.535</ele>
<time>2019-02-07T05:57:48.999Z</time>
</trkpt>
<trkpt lat="22.2463737" lon="114.2485404">
<ele>25.416</ele>
<time>2019-02-07T05:57:50.999Z</time>
</trkpt>
<trkpt lat="22.2463737" lon="114.2485404">
<ele>25.396</ele>
<time>2019-02-07T05:57:51.099Z</time>
</trkpt>
<trkpt lat="22.2463737" lon="114.2485404">
<ele>25.395</ele>
<time>2019-02-07T05:58:32.999Z</time>
</trkpt>
<trkpt lat="22.2463737" lon="114.2485404">
<ele>25.387</ele>
<time>2019-02-07T05:58:33.099Z</time>
</trkpt>
<trkpt lat="22.2463955" lon="114.2484018">
<ele>25.378</ele>
<time>2019-02-07T05:58:55.115Z</time>
</trkpt>
<trkpt lat="22.2464591" lon="114.2483279">
<ele>22.971</ele>
<time>2019-02-07T05:59:05.999Z</time>
</trkpt>
<trkpt lat="22.2464591" lon="114.2483279">
<ele>16.720</ele>
<time>2019-02-07T05:59:11.999Z</time>
</trkpt>
<trkpt lat="22.2464591" lon="114.2483279">
<ele>11.506</ele>
<time>2019-02-07T05:59:21.999Z</time>
</trkpt>
<trkpt lat="22.2464591" lon="114.2483279">
<ele>11.589</ele>
<time>2019-02-07T05:59:22.099Z</time>
</trkpt>
<trkpt lat="22.2465437" lon="114.2482834">
<ele>13.617</ele>
<time>2019-02-07T05:59:49.931Z</time>
</trkpt>
<trkpt lat="22.2466335" lon="114.2482684">
<ele>12.763</ele>
<time>2019-02-07T06:00:03.368Z</time>
</trkpt>
<trkpt lat="22.2467033" lon="114.2481989">
<ele>8.920</ele>
<time>2019-02-07T06:00:12.397Z</time>
</trkpt>
<trkpt lat="22.2467827" lon="114.2481501">
<ele>5.242</ele>
<time>2019-02-07T06:00:20.887Z</time>
</trkpt>
<trkpt lat="22.2468636" lon="114.2481011">
<ele>3.597</ele>
<time>2019-02-07T06:00:30.221Z</time>
</trkpt>
<trkpt lat="22.2469073" lon="114.2480068">
<ele>3.446</ele>
<time>2019-02-07T06:00:40.026Z</time>
</trkpt>
<trkpt lat="22.2469867" lon="114.2479519">
<ele>3.791</ele>
<time>2019-02-07T06:00:49.960Z</time>
</trkpt>
<trkpt lat="22.2469951" lon="114.2478519">
<ele>3.974</ele>
<time>2019-02-07T06:01:00.672Z</time>
</trkpt>
<trkpt lat="22.2469804" lon="114.2477528">
<ele>3.847</ele>
<time>2019-02-07T06:01:14.999Z</time>
</trkpt>
<trkpt lat="22.2469804" lon="114.2477528">
<ele>3.622</ele>
<time>2019-02-07T06:01:20.999Z</time>
</trkpt>
<trkpt lat="22.2469804" lon="114.2477528">
<ele>3.507</ele>
<time>2019-02-07T06:01:23.952Z</time>
</trkpt>
<trkpt lat="22.2469837" lon="114.2476033">
<ele>3.518</ele>
<time>2019-02-07T06:02:07.353Z</time>
</trkpt>
<trkpt lat="22.2469593" lon="114.2475027">
<ele>3.141</ele>
<time>2019-02-07T06:02:20.695Z</time>
</trkpt>
<trkpt lat="22.2469551" lon="114.2473986">
<ele>2.006</ele>
<time>2019-02-07T06:02:30.000Z</time>
</trkpt>
<trkpt lat="22.2469551" lon="114.2473986">
<ele>0.737</ele>
<time>2019-02-07T06:02:37.999Z</time>
</trkpt>
<trkpt lat="22.2469551" lon="114.2473986">
<ele>0.140</ele>
<time>2019-02-07T06:02:48.890Z</time>
</trkpt>
<trkpt lat="22.2469515" lon="114.2472977">
<ele>0.507</ele>
<time>2019-02-07T06:03:11.635Z</time>
</trkpt>
<trkpt lat="22.2469042" lon="114.2472068">
<ele>0.530</ele>
<time>2019-02-07T06:03:22.642Z</time>
</trkpt>
<trkpt lat="22.2468457" lon="114.2471298">
<ele>0.096</ele>
<time>2019-02-07T06:03:31.610Z</time>
</trkpt>
<trkpt lat="22.2468099" lon="114.2470356">
<ele>0.000</ele>
<time>2019-02-07T06:03:40.904Z</time>
</trkpt>
<trkpt lat="22.2467590" lon="114.2469509">
<ele>0.000</ele>
<time>2019-02-07T06:03:50.724Z</time>
</trkpt>
<trkpt lat="22.2466871" lon="114.2468880">
<ele>0.000</ele>
<time>2019-02-07T06:04:00.999Z</time>
</trkpt>
<trkpt lat="22.2466871" lon="114.2468880">
<ele>0.000</ele>
<time>2019-02-07T06:04:10.999Z</time>
</trkpt>
<trkpt lat="22.2466871" lon="114.2468880">
<ele>0.000</ele>
<time>2019-02-07T06:04:11.787Z</time>
</trkpt>
<trkpt lat="22.2466652" lon="114.2467934">
<ele>0.000</ele>
<time>2019-02-07T06:04:27.619Z</time>
</trkpt>
<trkpt lat="22.2466469" lon="114.2466925">
<ele>0.000</ele>
<time>2019-02-07T06:04:37.405Z</time>
</trkpt>
<trkpt lat="22.2466062" lon="114.2466036">
<ele>0.000</ele>
<time>2019-02-07T06:04:46.510Z</time>
</trkpt>
<trkpt lat="22.2465653" lon="114.2465155">
<ele>0.000</ele>
<time>2019-02-07T06:04:55.999Z</time>
</trkpt>
<trkpt lat="22.2465653" lon="114.2465155">
<ele>0.000</ele>
<time>2019-02-07T06:05:00.999Z</time>
</trkpt>
<trkpt lat="22.2465653" lon="114.2465155">
<ele>0.000</ele>
<time>2019-02-07T06:05:09.887Z</time>
</trkpt>
<trkpt lat="22.2465202" lon="114.2463800">
<ele>0.000</ele>
<time>2019-02-07T06:05:31.120Z</time>
</trkpt>
<trkpt lat="22.2465218" lon="114.2462797">
<ele>0.000</ele>
<time>2019-02-07T06:05:40.135Z</time>
</trkpt>
<trkpt lat="22.2465070" lon="114.2461820">
<ele>0.121</ele>
<time>2019-02-07T06:05:47.999Z</time>
</trkpt>
<trkpt lat="22.2465070" lon="114.2461820">
<ele>0.267</ele>
<time>2019-02-07T06:05:54.999Z</time>
</trkpt>
</trkseg>
</trk>
<extensions>
<fpdata xmlns="http://www.motionx.com/GPX-Extensions/1/1" sfv="10" origin="MotionXGPSFull 24.4 Build 5112 R64">
<bin enc="base64">
RgIAAAACAAAA/BzOkOgW10EBAAAAwhKj9fIW10EAAHCmSbOxQHkCAACJfgYAEo6NXSk7
+T8K87vPoRDRPwAAAAASAAAAQmlnIFdhdmUgQmF5IDIwMTkAFQAAAEZlYiA3LCAyMDE5
IDExOjEzIGFtAAAAAADoEqP18hbXQSLJ2/vyFtdBv8tlAMSJDmpPe1dALAAAAAEAAAA/
HayVEZBcQM0WSC1ORDZAEo6NXSk7+T8AAAAAAAA5QAAAAAAAAAhAAAAAAABgZUAAAAAA
AAAAAAAAAABnZmZmZo5oQJYLvTnXUw5AAQAAAAhmHYwcYtC/AQAAAAEAAABOD/mH3mLA
PwhmHYwcYtC/AQAAAAEAAAADAAAAeq4QYZrqEkAAAAAAAAAAAAAAAAAAAAAAAAAAAAAA
AAAAAAAAAAAAAAAAAAAAAAAAYB8AADD3v7DyFtdBAAAAAAAAAAAAAAAAAAAAAP8lRLwC
AAAAAAAAAAAAAAABAAAAJwAAADI0LjIgQnVpbGQgNTA2M1I2NCwgTVhBRSA4LjEgYi4g
NjI2UjY0AAAAAABvXAAAAQAAAAFrAAAAQ6JbXMTKW1wEiC1GkugW10GILUaS6BbXQQAA
AAAIgRdAAAAAAAIQHc6Q6BbXQeHuhMLoFtdBAACA6GjbaEAAAAAAAn4XRsXoFtdBWr0F
1egW10EAAEDrnV1wQAAAAAAC3jrG1+gW10Hd64TY6BbXQQAAACtKjXBAAAAAAALYDIbi
6BbXQUxwBOroFtdBAAAACONsckAAAAAAArrdxx7pFtdB/MnEH+kW10EAAIAYHqxyQAAA
AAACnvKMSekW10EKT4VN6RbXQQAAgDM1qnNAAAAAAAIqWkZQ6RbXQS2WhFbpFtdBAABA
NMQ5dUAAAAAAAixiBl7pFtdBrySFZOkW10EAAADVdNl2QAAAAAACMKLGZ+kW10GJtAV8
6RbXQQAAQGs56XtAAAAAAAL1oEaH6RbXQRHGxIrpFtdBAABAssLIfEAAAAAAAmqghY3p
FtdBv39FkekW10EAAICHurh9QAAAAAACCOZFlekW10GC/YSr6RbXQQAAADNApIFAAAAA
AAJ074Wz6RbXQUDdRLnpFtdBAACA7B1cgkAAAAAAAvYMBr3pFtdBG/RDw+kW10EAACDR
2iODQAAAAAACauCFyOkW10E8SIXg6RbXQQAAYMvHI4ZAAAAAAAJ4tsXk6RbXQbaiRQfq
FtdBAAAgU8VzikAAAAAAAto1RlHqFtdB9tVEU+oW10EAAKBWmbOKQAAAAAACE0ZFVeoW
10FG0MRW6hbXQQAAAJ2K44pAAAAAAAKYFgVZ6hbXQSuGBWvqFtdBAABgj5gjjUAAAAAA
Aho1xm7qFtdBOJ/FeOoW10EAACDThWOOQAAAAAACHqNFfuoW10FEvwWS6hbXQQAA8KvE
bZBAAAAAAAIkJwee6hbXQUtZhaDqFtdBAABgzqeVkEAAAAAAAkHzhcrqFtdBApwEz+oW
10EAAHBakt2QQAAAAAACyJTG0eoW10HcoMXa6hbXQQAAsBuDbZFAAAAAAALiJMXn6hbX
QSoeRfjqFtdBAAAwsIJ1kkAAAAAAAhtnx/zqFtdByGOE/uoW10EAAAB7UpGSQAAAAAAC
4rDGA+sW10FMwoUN6xbXQQAAoJFDLZNAAAAAAAIdkkYQ6xbXQVwihirrFtdBAACQlTzR
lEAAAAAAAmiVxizrFtdBjGyFNesW10EAANAHKl2VQAAAAAACh/sFPOsW10GOXgV76xbX
QQAAQDggTZlAAAAAAALCSoYw7BbXQThIBTHsFtdBAACgDxBVmUAAAAAAAkAwRzbsFtdB
JPTES+wW10EAAOBN7KyaQAAAAAAC+1lHU+wW10EaFUVU7BbXQQAA0P/HvJpAAAAAAALh
mEZW7BbXQSR/hV7sFtdBAAAAZLZAm0AAAAAAAsyYx2rsFtdBUp+G3ewW10EAADBmUzah
QAAAAAACamlI4+wW10H4+YUE7RbXQQAAoOo/QKJAAAAAAAIG2AYH7RbXQYunxQ/tFtdB
AADIZjaGokAAAAAAAiLiBRPtFtdBFoqFGO0W10EAAGimM7KiQAAAAAAChNUGHu0W10HO
TcYe7RbXQQAAuGgvuKJAAAAAAAL1vcUh7RbXQQoSBjXtFtdBAABgCTJSo0AAAAAAArpn
SHDtFtdB2LcEcu0W10EAAFCKFGCjQAAAAAACB5nHeO0W10G+okV57RbXQQAACNgEZKNA
AAAAAAJITUd57RbXQR8TxXntFtdBAADABvNno0AAAAAAAtbixaDtFtdBvobEoe0W10EA
AAAm6G+jQAAAAAACzhsHxe0W10FHH0XH7RbXQQAAyEHYgaNAAAAAAAIyzEXN7RbXQcr3
xNjtFtdBAACIntHdo0AAAAAAAt7KRvvtFtdBzAkFJO4W10EAAPiVwyOlQAAAAAACKJtF
Se4W10ENUoVP7hbXQQAAIE3BVaVAAAAAAAKzfEhV7hbXQTVhRVjuFtdBAAAwcahtpUAA
AAAAAsgKhVvuFtdBdM6EXO4W10EAAJCOpnWlQAAAAAAChhtHcu4W10EPYgR57hbXQQAA
2MKQq6VAAAAAAALoD0WA7hbXQQLVxIHuFtdBAACo6463pUAAAAAAAvRNhYfuFtdB9l2F
ie4W10EAALhrj8elQAAAAAAC+IeIoe4W10EwSESi7hbXQQAAeG1tzaVAAAAAAAId50Si
7hbXQcWthKLuFtdBAAC4omvPpUAAAAAAAmA/RrbuFtdBP1YExu4W10EAALBZXE2mQAAA
AAAC2IUGz+4W10Fs6wXQ7hbXQQAAUIZXVaZAAAAAAALgocbY7hbXQT8bBu/uFtdBAABI
UVMHp0AAAAAAAkSohPbuFtdBlN/F/+4W10EAAMgLXVGnQAAAAAACOScGC+8W10HQ1AUM
7xbXQQAAgHhaWadAAAAAAALeGsgd7xbXQf/rxDXvFtdBAACIAUEZqEAAAAAAAi14xTfv
FtdBObZFP+8W10EAAOjxQlWoQAAAAAACLjpGRO8W10H4cAVI7xbXQQAAOKg8c6hAAAAA
AAIUO8ZL7xbXQazJxEzvFtdBAAD4HDF7qEAAAAAAAhy4Rk/vFtdBLEpFUO8W10EAAHit
JYOoQAAAAAAC4jqFWe8W10GIL4Vh7xbXQQAAqFIlw6hAAAAAAAIc7ARo7xbXQX4aBWvv
FtdBAAC4xSbbqEAAAAAAAphsxWzvFtdBC3zFb+8W10EAAFBBJ/OoQAAAAAAC4pVFcu8W
10FY/oRz7xbXQQAAAIUi/ahAAAAAAAKSXUZ27xbXQZLJBXvvFtdBAAAA5R0jqUAAAAAA
AjnTBoHvFtdB8kVFg+8W10EAAMh6ETWpQAAAAAAC0sTEj+8W10HcosWh7xbXQQAAGGsY
xalAAAAAAAIexcas7xbXQSFaRa7vFtdBAAAwEw3RqUAAAAAAAiR+xsLvFtdB8L9Exe8W
10EAAJAh/+SpQAAAAAACX5fFBfAW10FWgQYI8BbXQQAASHEG96lAAAAAAAIY0EZG8BbX
Qaj9BUjwFtdBAADI3f8EqkAAAAAAAggjRUvwFtdByebFTPAW10EAAND7BRGqQAAAAAAC
nrUGVfAW10GwGgZW8BbXQQAAYCQBGapAAAAAAALmOwZa8BbXQfDCRXbwFtdBAACwXP36
qkAAAAAAAsTMxHjwFtdBPiEGkvAW10EAAIAACMWrQAAAAAACNpRIo/AW10GRRkWk8BbX
QQAAWJPtzKtAAAAAAAIurQWm8BbXQf4nRanwFtdBAADYaenmq0AAAAAAAgGGha3wFtdB
x7vFr/AW10EAAAgY6/irQAAAAAAC5peFs/AW10F4B8bW8BbXQQAAmJTuEq1AAAAAAAJg
ckbY8BbXQUAWxuTwFtdBAACYs+t2rUAAAAAAAhnjxejwFtdBPPgF/PAW10EAALBc7BCu
QAAAAAACq85GDfEW10FlU0Yb8RbXQQAAgILogK5AAAAAAALnUsYh8RbXQQhYhCvxFtdB
AACIq9jOrkAAAAAAAjP7BczxFtdBXoLFzvEW10EAAODk1OSuQAAAAAACVP0E2/EW10E+
kcTd8RbXQQAAMITR+q5AAAAAAAK4sUbj8RbXQc9MBefxFtdBAADoXMYYr0AAAAAAAlL0
henxFtdBqMlF9fEW10EAAJgHxXavQAAAAAACsMVG/fEW10GyhsUB8hbXQQAAqA+7mq9A
AAAAAALgLYUD8hbXQaZBRgXyFtdBAADYrcOor0AAAAAAAmjsRQfyFtdBalEFC/IW10EA
AOjVvsavQAAAAAACu9IGDvIW10EexYYP8hbXQQAAAGm+0q9AAAAAAALqJEUS8hbXQf61
BSnyFtdBAADQeGFEsEAAAAAAAl1uBSzyFtdB0OuFMvIW10EAAJxuY16wQAAAAAACqtBG
N/IW10G5GQY48hbXQQAA2JJgYbBAAAAAAALLuwU98hbXQQvuhELyFtdBAADYW113sEAA
AAAAAlAdhkXyFtdBq7BFTPIW10EAAESpW5KwQAAAAAAC3sZFUfIW10FC0YVs8hbXQQAA
1NJb/7BAAAAAAALwwoZ28hbXQcDtxn/yFtdBAAAUflwksUAAAAAAAv6aBoXyFtdB+kEG
l/IW10EAAAQaW2yxQAAAAAACQj8FmfIW10E/jIWj8hbXQQAA+E1clrFAAAAAAAIwKMqp
8hbXQU5+BbHyFtdBAABwpkmzsUAAAAAAAAAAAA==
</bin>
</fpdata>
</extensions>
</gpx>
